Time,TemperatureF,DewpointF,PressureIn,WindDirection,WindDirectionDegrees,WindSpeedMPH,WindSpeedGustMPH,Humidity,HourlyPrecipIn,Conditions,Clouds,dailyrainin,SoftwareType,DateUTC
2013-12-19 00:01:00,53.4,11.0,24.92,NW,304,7.6,11.0,18,0.00,,---,0.00,VWS V14.01,2013-12-19 06:01:00,
2013-12-19 00:03:00,53.4,11.0,24.92,WNW,288,8.7,8.7,18,0.00,,---,0.00,VWS V14.01,2013-12-19 06:03:00,
2013-12-19 00:06:00,53.8,11.3,24.92,WNW,299,11.0,11.0,18,0.00,,---,0.00,VWS V14.01,2013-12-19 06:06:00,
2013-12-19 00:08:00,54.0,11.4,24.92,WNW,296,8.1,9.6,18,0.00,,---,0.00,VWS V14.01,2013-12-19 06:08:00,
2013-12-19 00:09:00,54.1,11.6,24.92,WNW,298,8.3,10.1,18,0.00,,---,0.00,VWS V14.01,2013-12-19 06:09:00,
2013-12-19 00:12:00,54.5,11.9,24.92,NW,308,8.7,11.0,18,0.00,,---,0.00,VWS V14.01,2013-12-19 06:12:00,
2013-12-19 00:14:00,54.7,12.0,24.92,West,277,7.2,9.2,18,0.00,,---,0.00,VWS V14.01,2013-12-19 06:14:00,
2013-12-19 00:16:00,54.9,12.2,24.95,WNW,294,10.1,10.1,18,0.00,,---,0.00,VWS V14.01,2013-12-19 06:16:00,
2013-12-19 00:18:00,55.0,12.3,24.95,NW,305,8.7,8.7,18,0.00,,---,0.00,VWS V14.01,2013-12-19 06:18:00,
2013-12-19 00:20:00,55.2,12.5,24.95,NW,311,7.6,10.5,18,0.00,,---,0.00,VWS V14.01,2013-12-19 06:20:00,
2013-12-19 00:22:00,55.2,12.5,24.95,NW,307,7.6,10.5,18,0.00,,---,0.00,VWS V14.01,2013-12-19 06:22:00,
2013-12-19 00:23:00,55.2,12.5,24.95,WNW,301,8.7,8.7,18,0.00,,---,0.00,VWS V14.01,2013-12-19 06:23:00,
2013-12-19 00:24:00,55.2,12.5,24.95,WNW,299,8.3,9.2,18,0.00,,---,0.00,VWS V14.01,2013-12-19 06:24:00,
2013-12-19 00:25:00,55.2,12.5,24.95,NW,322,7.6,8.3,18,0.00,,---,0.00,VWS V14.01,2013-12-19 06:25:00,
2013-12-19 00:29:00,55.2,12.5,24.95,NW,317,8.3,8.3,18,0.00,,---,0.00,VWS V14.01,2013-12-19 06:29:00,
2013-12-19 00:30:00,55.2,12.5,24.95,NW,318,6.3,8.3,18,0.00,,---,0.00,VWS V14.01,2013-12-19 06:30:00,
2013-12-19 00:31:00,55.2,12.5,24.95,NNW,331,7.6,7.6,18,0.00,,---,0.00,VWS V14.01,2013-12-19 06:31:00,
2013-12-19 00:33:00,55.2,12.5,24.95,NW,310,8.3,8.7,18,0.00,,---,0.00,VWS V14.01,2013-12-19 06:33:00,
2013-12-19 00:35:00,55.2,12.5,24.95,NW,307,10.1,10.1,18,0.00,,---,0.00,VWS V14.01,2013-12-19 06:35:00,
2013-12-19 00:37:00,55.4,11.3,24.95,NW,321,8.7,8.7,17,0.00,,---,0.00,VWS V14.01,2013-12-19 06:37:00,
2013-12-19 00:40:00,55.8,11.6,24.95,WNW,302,10.1,10.1,17,0.00,,---,0.00,VWS V14.01,2013-12-19 06:40:00,
2013-12-19 00:41:00,55.8,11.6,24.95,NNW,336,8.7,12.3,17,0.00,,---,0.00,VWS V14.01,2013-12-19 06:41:00,
2013-12-19 00:42:00,55.9,11.8,24.95,NW,314,9.2,9.2,17,0.00,,---,0.00,VWS V14.01,2013-12-19 06:42:00,
2013-12-19 00:45:00,56.3,12.1,24.95,WNW,292,11.0,11.0,17,0.00,,---,0.00,VWS V14.01,2013-12-19 06:45:00,
2013-12-19 00:46:00,56.3,12.1,24.95,WNW,291,6.3,11.0,17,0.00,,---,0.00,VWS V14.01,2013-12-19 06:46:00,
2013-12-19 00:47:00,56.3,12.1,24.95,WNW,293,8.1,10.1,17,0.00,,---,0.00,VWS V14.01,2013-12-19 06:47:00,
2013-12-19 00:48:00,56.3,12.1,24.95,West,271,7.2,8.7,17,0.00,,---,0.00,VWS V14.01,2013-12-19 06:48:00,
2013-12-19 00:52:00,56.1,11.9,24.95,WNW,291,7.6,8.3,17,0.00,,---,0.00,VWS V14.01,2013-12-19 06:52:00,
2013-12-19 00:53:00,56.1,11.9,24.95,WNW,288,8.1,8.3,17,0.00,,---,0.00,VWS V14.01,2013-12-19 06:53:00,
2013-12-19 00:54:00,55.9,11.8,24.95,West,277,5.8,8.1,17,0.00,,---,0.00,VWS V14.01,2013-12-19 06:54:00,
2013-12-19 00:55:00,55.9,11.8,24.95,West,261,2.7,5.8,17,0.00,,---,0.00,VWS V14.01,2013-12-19 06:55:00,
2013-12-19 00:59:00,55.6,11.5,24.95,West,261,0.0,4.9,17,0.00,,---,0.00,VWS V14.01,2013-12-19 06:59:00,
2013-12-19 01:00:00,55.2,12.5,24.95,West,261,3.1,3.1,18,0.00,,---,0.00,VWS V14.01,2013-12-19 07:00:00,
2013-12-19 01:01:00,55.2,12.5,24.95,West,263,3.1,3.1,18,0.00,,---,0.00,VWS V14.01,2013-12-19 07:01:00,
2013-12-19 01:05:00,54.0,11.4,24.95,West,268,3.1,3.6,18,0.00,,---,0.00,VWS V14.01,2013-12-19 07:05:00,
2013-12-19 01:06:00,53.8,11.3,24.95,WSW,246,2.2,4.9,18,0.00,,---,0.00,VWS V14.01,2013-12-19 07:06:00,
2013-12-19 01:07:00,53.6,11.1,24.95,WSW,246,2.7,2.7,18,0.00,,---,0.00,VWS V14.01,2013-12-19 07:07:00,
2013-12-19 01:09:00,53.2,10.9,24.95,WSW,252,0.0,0.0,18,0.00,,---,0.00,VWS V14.01,2013-12-19 07:09:00,
2013-12-19 01:10:00,53.1,10.7,24.95,NW,318,6.7,6.7,18,0.00,,---,0.00,VWS V14.01,2013-12-19 07:10:00,
2013-12-19 01:12:00,53.1,10.7,24.95,NNW,328,4.0,5.4,18,0.00,,---,0.00,VWS V14.01,2013-12-19 07:12:00,
2013-12-19 01:13:00,53.2,10.9,24.95,NNW,329,3.1,4.0,18,0.00,,---,0.00,VWS V14.01,2013-12-19 07:13:00,
2013-12-19 01:14:00,53.2,10.9,24.95,NNW,333,5.8,5.8,18,0.00,,---,0.00,VWS V14.01,2013-12-19 07:14:00,
2013-12-19 01:18:00,53.8,11.3,24.92,North,357,2.7,4.0,18,0.00,,---,0.00,VWS V14.01,2013-12-19 07:18:00,
2013-12-19 01:20:00,54.0,11.4,24.92,NNW,329,0.0,5.4,18,0.00,,---,0.00,VWS V14.01,2013-12-19 07:20:00,
2013-12-19 01:21:00,54.1,11.6,24.92,NNW,329,0.0,0.0,18,0.00,,---,0.00,VWS V14.01,2013-12-19 07:21:00,
2013-12-19 01:22:00,54.1,11.6,24.92,NW,324,0.0,0.0,18,0.00,,---,0.00,VWS V14.01,2013-12-19 07:22:00,
2013-12-19 01:24:00,54.0,11.4,24.92,NW,324,0.0,0.0,18,0.00,,---,0.00,VWS V14.01,2013-12-19 07:24:00,
2013-12-19 01:25:00,53.8,11.3,24.92,NW,324,0.0,0.0,18,0.00,,---,0.00,VWS V14.01,2013-12-19 07:25:00,
2013-12-19 01:27:00,53.4,11.0,24.92,SSW,203,0.0,4.0,18,0.00,,---,0.00,VWS V14.01,2013-12-19 07:27:00,
2013-12-19 01:28:00,53.2,10.9,24.92,SSW,203,0.0,0.0,18,0.00,,---,0.00,VWS V14.01,2013-12-19 07:28:00,
2013-12-19 01:29:00,53.1,10.7,24.92,SSW,203,0.0,0.0,18,0.00,,---,0.00,VWS V14.01,2013-12-19 07:29:00,
2013-12-19 01:33:00,52.7,10.4,24.92,West,277,0.0,0.0,18,0.00,,---,0.00,VWS V14.01,2013-12-19 07:33:00,
2013-12-19 01:34:00,52.5,10.2,24.92,West,276,0.0,0.0,18,0.00,,---,0.00,VWS V14.01,2013-12-19 07:34:00,
2013-12-19 01:35:00,52.3,10.1,24.92,West,274,0.0,0.0,18,0.00,,---,0.00,VWS V14.01,2013-12-19 07:35:00,
2013-12-19 01:38:00,51.8,9.7,24.92,West,274,0.0,0.0,18,0.00,,---,0.00,VWS V14.01,2013-12-19 07:38:00,
2013-12-19 01:39:00,51.6,10.7,24.92,West,275,0.0,0.0,19,0.00,,---,0.00,VWS V14.01,2013-12-19 07:39:00,
2013-12-19 01:41:00,51.4,10.6,24.92,West,274,0.0,0.0,19,0.00,,---,0.00,VWS V14.01,2013-12-19 07:41:00,
2013-12-19 01:43:00,51.1,10.3,24.92,West,272,0.0,0.0,19,0.00,,---,0.00,VWS V14.01,2013-12-19 07:43:00,
2013-12-19 01:44:00,50.9,10.1,24.92,West,272,0.0,0.0,19,0.00,,---,0.00,VWS V14.01,2013-12-19 07:44:00,
2013-12-19 01:45:00,50.7,10.0,24.92,West,272,0.0,0.0,19,0.00,,---,0.00,VWS V14.01,2013-12-19 07:45:00,
2013-12-19 01:46:00,50.5,9.8,24.92,West,272,0.0,0.0,19,0.00,,---,0.00,VWS V14.01,2013-12-19 07:46:00,
2013-12-19 01:49:00,50.0,9.4,24.92,West,272,0.0,0.0,19,0.00,,---,0.00,VWS V14.01,2013-12-19 07:49:00,
2013-12-19 01:51:00,50.0,9.4,24.92,West,272,0.0,0.0,19,0.00,,---,0.00,VWS V14.01,2013-12-19 07:51:00,
2013-12-19 01:52:00,49.8,9.2,24.92,West,271,0.0,0.0,19,0.00,,---,0.00,VWS V14.01,2013-12-19 07:52:00,
2013-12-19 01:54:00,49.8,9.2,24.92,West,271,0.0,0.0,19,0.00,,---,0.00,VWS V14.01,2013-12-19 07:54:00,
2013-12-19 01:56:00,49.6,9.1,24.92,West,271,0.0,2.7,19,0.00,,---,0.00,VWS V14.01,2013-12-19 07:56:00,
2013-12-19 02:00:00,49.8,9.2,24.92,ESE,119,4.0,6.3,19,0.00,,---,0.00,VWS V14.01,2013-12-19 08:00:00,
2013-12-19 02:01:00,50.0,9.4,24.92,East,94,3.1,4.0,19,0.00,,---,0.00,VWS V14.01,2013-12-19 08:01:00,
2013-12-19 02:02:00,50.0,9.4,24.92,East,91,4.0,4.0,19,0.00,,---,0.00,VWS V14.01,2013-12-19 08:02:00,
2013-12-19 02:03:00,50.2,9.5,24.92,East,89,0.0,4.0,19,0.00,,---,0.00,VWS V14.01,2013-12-19 08:03:00,
2013-12-19 02:05:00,50.2,9.5,24.92,East,89,0.0,0.0,19,0.00,,---,0.00,VWS V14.01,2013-12-19 08:05:00,
2013-12-19 02:06:00,50.2,9.5,24.92,East,89,0.0,0.0,19,0.00,,---,0.00,VWS V14.01,2013-12-19 08:06:00,
2013-12-19 02:08:00,50.2,9.5,24.92,East,89,0.0,0.0,19,0.00,,---,0.00,VWS V14.01,2013-12-19 08:08:00,
2013-12-19 02:10:00,50.2,9.5,24.92,ENE,75,0.0,2.7,19,0.00,,---,0.00,VWS V14.01,2013-12-19 08:10:00,
2013-12-19 02:11:00,50.2,9.5,24.92,NE,36,0.0,4.0,19,0.00,,---,0.00,VWS V14.01,2013-12-19 08:11:00,
2013-12-19 02:12:00,50.2,9.5,24.92,NE,36,0.0,0.0,19,0.00,,---,0.00,VWS V14.01,2013-12-19 08:12:00,
2013-12-19 02:17:00,50.7,10.0,24.92,NNW,348,2.7,4.0,19,0.00,,---,0.00,VWS V14.01,2013-12-19 08:17:00,
2013-12-19 02:18:00,50.7,10.0,24.92,NNW,328,5.4,5.4,19,0.00,,---,0.00,VWS V14.01,2013-12-19 08:18:00,
2013-12-19 02:20:00,50.9,10.1,24.92,North,7,4.0,5.4,19,0.00,,---,0.00,VWS V14.01,2013-12-19 08:20:00,
2013-12-19 02:23:00,51.1,10.3,24.92,NNW,345,2.7,5.4,19,0.00,,---,0.00,VWS V14.01,2013-12-19 08:23:00,
2013-12-19 02:27:00,51.3,10.4,24.92,North,6,4.0,4.0,19,0.00,,---,0.00,VWS V14.01,2013-12-19 08:27:00,
2013-12-19 02:28:00,51.3,10.4,24.92,North,8,4.0,4.0,19,0.00,,---,0.00,VWS V14.01,2013-12-19 08:28:00,
2013-12-19 02:29:00,51.3,10.4,24.92,NNE,33,4.0,4.0,19,0.00,,---,0.00,VWS V14.01,2013-12-19 08:29:00,
2013-12-19 02:31:00,51.3,10.4,24.92,North,0,3.1,3.6,19,0.00,,---,0.00,VWS V14.01,2013-12-19 08:31:00,
2013-12-19 02:32:00,51.3,10.4,24.92,North,6,2.7,3.1,19,0.00,,---,0.00,VWS V14.01,2013-12-19 08:32:00,
2013-12-19 02:33:00,51.3,10.4,24.92,NNE,23,2.7,3.6,19,0.00,,---,0.00,VWS V14.01,2013-12-19 08:33:00,
2013-12-19 02:36:00,51.1,10.3,24.92,NNE,12,3.1,5.8,19,0.00,,---,0.00,VWS V14.01,2013-12-19 08:36:00,
2013-12-19 02:37:00,51.1,10.3,24.92,North,357,2.2,3.6,19,0.00,,---,0.00,VWS V14.01,2013-12-19 08:37:00,
2013-12-19 02:38:00,50.9,10.1,24.92,North,5,2.2,2.7,19,0.00,,---,0.00,VWS V14.01,2013-12-19 08:38:00,
2013-12-19 02:43:00,50.5,9.8,24.92,North,353,3.1,4.0,19,0.00,,---,0.00,VWS V14.01,2013-12-19 08:43:00,
2013-12-19 02:44:00,50.5,9.8,24.92,North,353,0.0,3.6,19,0.00,,---,0.00,VWS V14.01,2013-12-19 08:44:00,
2013-12-19 02:46:00,50.4,9.7,24.92,North,353,0.0,0.0,19,0.00,,---,0.00,VWS V14.01,2013-12-19 08:46:00,
2013-12-19 02:49:00,50.0,9.4,24.92,North,353,0.0,0.0,19,0.00,,---,0.00,VWS V14.01,2013-12-19 08:49:00,
2013-12-19 02:53:00,49.5,8.9,24.92,North,353,0.0,0.0,19,0.00,,---,0.00,VWS V14.01,2013-12-19 08:53:00,
2013-12-19 02:54:00,49.3,8.8,24.92,North,353,0.0,0.0,19,0.00,,---,0.00,VWS V14.01,2013-12-19 08:54:00,
2013-12-19 02:55:00,49.3,8.8,24.92,North,353,0.0,0.0,19,0.00,,---,0.00,VWS V14.01,2013-12-19 08:55:00,
2013-12-19 02:56:00,49.1,8.6,24.92,North,353,0.0,0.0,19,0.00,,---,0.00,VWS V14.01,2013-12-19 08:56:00,
2013-12-19 02:58:00,48.9,8.5,24.92,North,353,0.0,0.0,19,0.00,,---,0.00,VWS V14.01,2013-12-19 08:58:00,
2013-12-19 02:59:00,48.9,8.5,24.92,North,353,0.0,0.0,19,0.00,,---,0.00,VWS V14.01,2013-12-19 08:59:00,
2013-12-19 03:02:00,48.7,8.3,24.89,North,353,0.0,0.0,19,0.00,,---,0.00,VWS V14.01,2013-12-19 09:02:00,
2013-12-19 03:04:00,48.6,8.2,24.89,North,353,0.0,0.0,19,0.00,,---,0.00,VWS V14.01,2013-12-19 09:04:00,
2013-12-19 03:05:00,48.4,8.0,24.89,North,353,0.0,0.0,19,0.00,,---,0.00,VWS V14.01,2013-12-19 09:05:00,
2013-12-19 03:07:00,48.2,7.9,24.89,North,353,0.0,0.0,19,0.00,,---,0.00,VWS V14.01,2013-12-19 09:07:00,
2013-12-19 03:08:00,48.0,7.7,24.89,North,353,0.0,0.0,19,0.00,,---,0.00,VWS V14.01,2013-12-19 09:08:00,
2013-12-19 03:09:00,48.0,7.7,24.89,North,353,0.0,0.0,19,0.00,,---,0.00,VWS V14.01,2013-12-19 09:09:00,
2013-12-19 03:12:00,47.8,7.6,24.89,North,353,0.0,0.0,19,0.00,,---,0.00,VWS V14.01,2013-12-19 09:12:00,
2013-12-19 03:13:00,47.8,7.6,24.89,North,353,2.7,2.7,19,0.00,,---,0.00,VWS V14.01,2013-12-19 09:13:00,
2013-12-19 03:14:00,47.8,7.6,24.89,North,353,2.7,3.1,19,0.00,,---,0.00,VWS V14.01,2013-12-19 09:14:00,
2013-12-19 03:15:00,47.8,7.6,24.89,North,353,2.7,3.6,19,0.00,,---,0.00,VWS V14.01,2013-12-19 09:15:00,
2013-12-19 03:18:00,47.8,7.6,24.89,North,353,2.2,3.1,19,0.00,,---,0.00,VWS V14.01,2013-12-19 09:18:00,
2013-12-19 03:19:00,47.8,7.6,24.89,North,353,0.0,2.2,19,0.00,,---,0.00,VWS V14.01,2013-12-19 09:19:00,
2013-12-19 03:23:00,47.7,7.4,24.89,North,353,0.0,0.0,19,0.00,,---,0.00,VWS V14.01,2013-12-19 09:23:00,
2013-12-19 03:24:00,47.5,7.3,24.89,North,353,0.0,0.0,19,0.00,,---,0.00,VWS V14.01,2013-12-19 09:24:00,
2013-12-19 03:26:00,47.3,7.1,24.89,North,353,0.0,0.0,19,0.00,,---,0.00,VWS V14.01,2013-12-19 09:26:00,
2013-12-19 03:27:00,47.3,7.1,24.89,North,353,0.0,0.0,19,0.00,,---,0.00,VWS V14.01,2013-12-19 09:27:00,
2013-12-19 03:28:00,47.1,7.0,24.89,North,353,0.0,0.0,19,0.00,,---,0.00,VWS V14.01,2013-12-19 09:28:00,
2013-12-19 03:29:00,46.9,6.8,24.89,North,353,0.0,0.0,19,0.00,,---,0.00,VWS V14.01,2013-12-19 09:29:00,
2013-12-19 03:31:00,46.8,6.7,24.89,North,353,0.0,0.0,19,0.00,,---,0.00,VWS V14.01,2013-12-19 09:31:00,
2013-12-19 03:32:00,46.8,6.7,24.89,North,353,0.0,0.0,19,0.00,,---,0.00,VWS V14.01,2013-12-19 09:32:00,
2013-12-19 03:35:00,46.6,6.5,24.89,NNW,328,0.0,4.0,19,0.00,,---,0.00,VWS V14.01,2013-12-19 09:35:00,
2013-12-19 03:37:00,46.4,6.4,24.89,NNW,328,0.0,0.0,19,0.00,,---,0.00,VWS V14.01,2013-12-19 09:37:00,
2013-12-19 03:38:00,46.4,6.4,24.89,NNW,328,0.0,0.0,19,0.00,,---,0.00,VWS V14.01,2013-12-19 09:38:00,
2013-12-19 03:39:00,46.4,6.4,24.89,NNW,328,0.0,0.0,19,0.00,,---,0.00,VWS V14.01,2013-12-19 09:39:00,
2013-12-19 03:40:00,46.4,6.4,24.89,NNW,328,0.0,0.0,19,0.00,,---,0.00,VWS V14.01,2013-12-19 09:40:00,
2013-12-19 03:42:00,46.4,6.4,24.89,NNW,328,0.0,0.0,19,0.00,,---,0.00,VWS V14.01,2013-12-19 09:42:00,
2013-12-19 03:44:00,46.6,6.5,24.89,NNW,328,0.0,0.0,19,0.00,,---,0.00,VWS V14.01,2013-12-19 09:44:00,
2013-12-19 03:46:00,46.8,6.7,24.89,NNW,328,0.0,3.1,19,0.00,,---,0.00,VWS V14.01,2013-12-19 09:46:00,
2013-12-19 03:47:00,46.9,6.8,24.89,NNW,328,0.0,0.0,19,0.00,,---,0.00,VWS V14.01,2013-12-19 09:47:00,
2013-12-19 03:49:00,47.1,7.0,24.89,NNW,328,3.1,3.6,19,0.00,,---,0.00,VWS V14.01,2013-12-19 09:49:00,
2013-12-19 03:50:00,47.1,7.0,24.89,NNW,327,3.6,4.0,19,0.00,,---,0.00,VWS V14.01,2013-12-19 09:50:00,
2013-12-19 03:53:00,47.5,7.3,24.89,NW,320,2.7,4.9,19,0.00,,---,0.00,VWS V14.01,2013-12-19 09:53:00,
2013-12-19 03:54:00,47.7,7.4,24.89,NW,320,3.6,4.0,19,0.00,,---,0.00,VWS V14.01,2013-12-19 09:54:00,
2013-12-19 03:55:00,47.8,7.6,24.89,NW,318,4.9,6.3,19,0.00,,---,0.00,VWS V14.01,2013-12-19 09:55:00,
2013-12-19 03:57:00,48.0,7.7,24.89,NW,313,5.4,6.3,19,0.00,,---,0.00,VWS V14.01,2013-12-19 09:57:00,
2013-12-19 03:58:00,48.2,7.9,24.89,NW,317,3.1,6.3,19,0.00,,---,0.00,VWS V14.01,2013-12-19 09:58:00,
2013-12-19 03:59:00,48.2,7.9,24.89,NW,324,5.8,5.8,19,0.00,,---,0.00,VWS V14.01,2013-12-19 09:59:00,
2013-12-19 04:00:00,48.4,8.0,24.89,NW,314,5.4,6.3,19,0.00,,---,0.00,VWS V14.01,2013-12-19 10:00:00,
2013-12-19 04:04:00,48.6,8.2,24.89,NNW,329,3.6,5.8,19,0.00,,---,0.00,VWS V14.01,2013-12-19 10:04:00,
2013-12-19 04:06:00,48.6,8.2,24.89,NW,325,3.1,4.0,19,0.00,,---,0.00,VWS V14.01,2013-12-19 10:06:00,
2013-12-19 04:07:00,48.7,8.3,24.89,NW,325,2.2,3.1,19,0.00,,---,0.00,VWS V14.01,2013-12-19 10:07:00,
2013-12-19 04:10:00,48.6,8.2,24.89,NW,325,3.6,3.6,19,0.00,,---,0.00,VWS V14.01,2013-12-19 10:10:00,
2013-12-19 04:11:00,48.4,8.0,24.89,NW,320,4.0,5.4,19,0.00,,---,0.00,VWS V14.01,2013-12-19 10:11:00,
2013-12-19 04:12:00,48.4,8.0,24.89,NW,318,4.9,4.9,19,0.00,,---,0.00,VWS V14.01,2013-12-19 10:12:00,
2013-12-19 04:13:00,48.4,8.0,24.89,NW,318,3.1,4.9,19,0.00,,---,0.00,VWS V14.01,2013-12-19 10:13:00,
2013-12-19 04:15:00,48.2,7.9,24.89,NW,318,0.0,0.0,19,0.00,,---,0.00,VWS V14.01,2013-12-19 10:15:00,
2013-12-19 04:16:00,48.2,7.9,24.89,NW,318,0.0,0.0,19,0.00,,---,0.00,VWS V14.01,2013-12-19 10:16:00,
2013-12-19 04:18:00,48.0,7.7,24.89,NW,318,0.0,0.0,19,0.00,,---,0.00,VWS V14.01,2013-12-19 10:18:00,
2013-12-19 04:19:00,47.8,7.6,24.89,NW,318,0.0,0.0,19,0.00,,---,0.00,VWS V14.01,2013-12-19 10:19:00,
2013-12-19 04:20:00,47.7,7.4,24.89,NW,318,0.0,0.0,19,0.00,,---,0.00,VWS V14.01,2013-12-19 10:20:00,
2013-12-19 04:21:00,47.7,7.4,24.89,NW,318,0.0,0.0,19,0.00,,---,0.00,VWS V14.01,2013-12-19 10:21:00,
2013-12-19 04:22:00,47.5,7.3,24.89,WNW,290,5.4,5.4,19,0.00,,---,0.00,VWS V14.01,2013-12-19 10:22:00,
2013-12-19 04:24:00,47.5,7.3,24.89,WNW,290,0.0,3.6,19,0.00,,---,0.00,VWS V14.01,2013-12-19 10:24:00,
2013-12-19 04:25:00,47.5,7.3,24.89,WNW,291,0.0,0.0,19,0.00,,---,0.00,VWS V14.01,2013-12-19 10:25:00,
2013-12-19 04:26:00,47.5,7.3,24.89,WNW,301,3.1,4.0,19,0.00,,---,0.00,VWS V14.01,2013-12-19 10:26:00,
2013-12-19 04:31:00,47.5,7.3,24.89,WNW,301,0.0,0.0,19,0.00,,---,0.00,VWS V14.01,2013-12-19 10:31:00,
2013-12-19 04:32:00,47.5,7.3,24.89,WNW,301,0.0,0.0,19,0.00,,---,0.00,VWS V14.01,2013-12-19 10:32:00,
2013-12-19 04:33:00,47.5,7.3,24.89,WNW,301,0.0,0.0,19,0.00,,---,0.00,VWS V14.01,2013-12-19 10:33:00,
2013-12-19 04:36:00,47.3,7.1,24.89,WNW,301,3.6,3.6,19,0.00,,---,0.00,VWS V14.01,2013-12-19 10:36:00,
2013-12-19 04:38:00,47.3,7.1,24.89,WNW,291,3.6,5.4,19,0.00,,---,0.00,VWS V14.01,2013-12-19 10:38:00,
2013-12-19 04:39:00,47.3,7.1,24.89,WNW,290,3.1,4.0,19,0.00,,---,0.00,VWS V14.01,2013-12-19 10:39:00,
2013-12-19 04:43:00,47.5,7.3,24.89,NW,310,5.8,5.8,19,0.00,,---,0.00,VWS V14.01,2013-12-19 10:43:00,
2013-12-19 04:44:00,47.7,7.4,24.89,WNW,300,4.9,5.8,19,0.00,,---,0.00,VWS V14.01,2013-12-19 10:44:00,
2013-12-19 04:45:00,47.8,7.6,24.89,WNW,300,3.6,4.9,19,0.00,,---,0.00,VWS V14.01,2013-12-19 10:45:00,
2013-12-19 04:47:00,48.0,7.7,24.89,NW,311,4.5,4.9,19,0.00,,---,0.00,VWS V14.01,2013-12-19 10:47:00,
2013-12-19 04:50:00,48.0,7.7,24.89,NW,304,2.7,3.6,19,0.00,,---,0.00,VWS V14.01,2013-12-19 10:50:00,
2013-12-19 04:51:00,48.2,7.9,24.89,NW,305,3.6,3.6,19,0.00,,---,0.00,VWS V14.01,2013-12-19 10:51:00,
2013-12-19 04:53:00,48.0,7.7,24.89,NW,310,2.7,3.6,19,0.00,,---,0.00,VWS V14.01,2013-12-19 10:53:00,
2013-12-19 04:55:00,48.0,7.7,24.89,NW,310,0.0,2.7,19,0.00,,---,0.00,VWS V14.01,2013-12-19 10:55:00,
2013-12-19 04:58:00,47.7,7.4,24.89,NW,310,0.0,0.0,19,0.00,,---,0.00,VWS V14.01,2013-12-19 10:58:00,
2013-12-19 05:00:00,47.5,7.3,24.89,NW,310,0.0,0.0,19,0.00,,---,0.00,VWS V14.01,2013-12-19 11:00:00,
2013-12-19 05:01:00,47.3,7.1,24.89,NW,310,0.0,0.0,19,0.00,,---,0.00,VWS V14.01,2013-12-19 11:01:00,
2013-12-19 05:05:00,46.9,6.8,24.89,NW,310,0.0,0.0,19,0.00,,---,0.00,VWS V14.01,2013-12-19 11:05:00,
2013-12-19 05:07:00,46.8,6.7,24.89,NW,310,0.0,0.0,19,0.00,,---,0.00,VWS V14.01,2013-12-19 11:07:00,
2013-12-19 05:08:00,46.6,6.5,24.89,NW,310,0.0,0.0,19,0.00,,---,0.00,VWS V14.01,2013-12-19 11:08:00,
2013-12-19 05:10:00,46.6,6.5,24.89,NW,310,0.0,0.0,19,0.00,,---,0.00,VWS V14.01,2013-12-19 11:10:00,
2013-12-19 05:13:00,46.4,6.4,24.89,NW,310,0.0,0.0,19,0.00,,---,0.00,VWS V14.01,2013-12-19 11:13:00,
2013-12-19 05:15:00,46.4,6.4,24.89,NW,310,0.0,0.0,19,0.00,,---,0.00,VWS V14.01,2013-12-19 11:15:00,
2013-12-19 05:16:00,46.4,6.4,24.89,NW,310,0.0,0.0,19,0.00,,---,0.00,VWS V14.01,2013-12-19 11:16:00,
2013-12-19 05:17:00,46.4,6.4,24.89,NW,310,3.6,3.6,19,0.00,,---,0.00,VWS V14.01,2013-12-19 11:17:00,
2013-12-19 05:19:00,46.4,6.4,24.89,NW,310,0.0,3.6,19,0.00,,---,0.00,VWS V14.01,2013-12-19 11:19:00,
2013-12-19 05:22:00,46.6,6.5,24.89,NW,310,2.7,2.7,19,0.00,,---,0.00,VWS V14.01,2013-12-19 11:22:00,
2013-12-19 05:24:00,46.8,6.7,24.89,NW,307,0.0,3.6,19,0.00,,---,0.00,VWS V14.01,2013-12-19 11:24:00,
2013-12-19 05:25:00,46.8,6.7,24.89,NW,307,0.0,0.0,19,0.00,,---,0.00,VWS V14.01,2013-12-19 11:25:00,
2013-12-19 05:27:00,46.8,6.7,24.89,NW,307,0.0,0.0,19,0.00,,---,0.00,VWS V14.01,2013-12-19 11:27:00,
2013-12-19 05:30:00,46.6,6.5,24.89,NW,307,0.0,0.0,19,0.00,,---,0.00,VWS V14.01,2013-12-19 11:30:00,
2013-12-19 05:31:00,46.6,6.5,24.89,NW,307,0.0,0.0,19,0.00,,---,0.00,VWS V14.01,2013-12-19 11:31:00,
2013-12-19 05:32:00,46.6,6.5,24.89,NW,305,3.1,3.6,19,0.00,,---,0.00,VWS V14.01,2013-12-19 11:32:00,
2013-12-19 05:33:00,46.6,6.5,24.89,WNW,303,2.7,3.6,19,0.00,,---,0.00,VWS V14.01,2013-12-19 11:33:00,
2013-12-19 05:37:00,46.6,6.5,24.89,WNW,303,2.7,2.7,19,0.00,,---,0.00,VWS V14.01,2013-12-19 11:37:00,
2013-12-19 05:38:00,46.6,6.5,24.89,WNW,303,3.1,3.1,19,0.00,,---,0.00,VWS V14.01,2013-12-19 11:38:00,
2013-12-19 05:39:00,46.6,6.5,24.89,WNW,303,3.1,4.0,19,0.00,,---,0.00,VWS V14.01,2013-12-19 11:39:00,
2013-12-19 05:43:00,46.6,6.5,24.89,WNW,303,0.0,2.7,19,0.00,,---,0.00,VWS V14.01,2013-12-19 11:43:00,
2013-12-19 05:44:00,46.6,6.5,24.89,WNW,303,0.0,0.0,19,0.00,,---,0.00,VWS V14.01,2013-12-19 11:44:00,
2013-12-19 05:45:00,46.6,6.5,24.89,WNW,303,2.7,2.7,19,0.00,,---,0.00,VWS V14.01,2013-12-19 11:45:00,
2013-12-19 05:46:00,46.6,6.5,24.89,WNW,303,2.7,2.7,19,0.00,,---,0.00,VWS V14.01,2013-12-19 11:46:00,
2013-12-19 05:47:00,46.6,6.5,24.89,WNW,303,0.0,2.7,19,0.00,,---,0.00,VWS V14.01,2013-12-19 11:47:00,
2013-12-19 05:48:00,46.6,6.5,24.89,WNW,303,0.0,0.0,19,0.00,,---,0.00,VWS V14.01,2013-12-19 11:48:00,
2013-12-19 05:53:00,46.4,6.4,24.89,WNW,302,0.0,0.0,19,0.00,,---,0.00,VWS V14.01,2013-12-19 11:53:00,
2013-12-19 05:55:00,46.4,6.4,24.89,WNW,302,0.0,0.0,19,0.00,,---,0.00,VWS V14.01,2013-12-19 11:55:00,
2013-12-19 05:56:00,46.4,6.4,24.89,WNW,302,0.0,0.0,19,0.00,,---,0.00,VWS V14.01,2013-12-19 11:56:00,
2013-12-19 05:57:00,46.4,6.4,24.89,WNW,302,0.0,0.0,19,0.00,,---,0.00,VWS V14.01,2013-12-19 11:57:00,
2013-12-19 05:58:00,46.4,6.4,24.89,WNW,302,0.0,0.0,19,0.00,,---,0.00,VWS V14.01,2013-12-19 11:58:00,
2013-12-19 06:01:00,46.4,6.4,24.86,WNW,302,0.0,0.0,19,0.00,,---,0.00,VWS V14.01,2013-12-19 12:01:00,
2013-12-19 06:02:00,46.4,6.4,24.86,WNW,298,2.7,2.7,19,0.00,,---,0.00,VWS V14.01,2013-12-19 12:02:00,
2013-12-19 06:04:00,46.4,6.4,24.86,West,276,5.4,5.4,19,0.00,,---,0.00,VWS V14.01,2013-12-19 12:04:00,
2013-12-19 06:05:00,46.4,6.4,24.86,West,261,0.0,5.4,19,0.00,,---,0.00,VWS V14.01,2013-12-19 12:05:00,
2013-12-19 06:09:00,46.9,6.8,24.86,SW,229,0.0,0.0,19,0.00,,---,0.00,VWS V14.01,2013-12-19 12:09:00,
2013-12-19 06:10:00,46.9,6.8,24.86,SW,235,0.0,0.0,19,0.00,,---,0.00,VWS V14.01,2013-12-19 12:10:00,
2013-12-19 06:13:00,47.3,7.1,24.86,WNW,293,0.0,2.7,19,0.00,,---,0.00,VWS V14.01,2013-12-19 12:13:00,
2013-12-19 06:18:00,47.3,7.1,24.86,West,262,2.7,4.0,19,0.00,,---,0.00,VWS V14.01,2013-12-19 12:18:00,
2013-12-19 06:19:00,47.3,7.1,24.86,West,262,0.0,2.7,19,0.00,,---,0.00,VWS V14.01,2013-12-19 12:19:00,
2013-12-19 06:20:00,47.3,7.1,24.86,West,262,0.0,0.0,19,0.00,,---,0.00,VWS V14.01,2013-12-19 12:20:00,
2013-12-19 06:21:00,47.3,7.1,24.86,West,263,0.0,0.0,19,0.00,,---,0.00,VWS V14.01,2013-12-19 12:21:00,
2013-12-19 06:24:00,47.3,7.1,24.86,West,260,2.7,2.7,19,0.00,,---,0.00,VWS V14.01,2013-12-19 12:24:00,
2013-12-19 06:25:00,47.3,7.1,24.86,West,268,3.1,4.0,19,0.00,,---,0.00,VWS V14.01,2013-12-19 12:25:00,
2013-12-19 06:26:00,47.3,7.1,24.86,West,266,5.4,5.4,19,0.00,,---,0.00,VWS V14.01,2013-12-19 12:26:00,
2013-12-19 06:27:00,47.3,7.1,24.86,WNW,297,4.0,5.4,19,0.00,,---,0.00,VWS V14.01,2013-12-19 12:27:00,
2013-12-19 06:31:00,47.7,7.4,24.86,West,267,4.0,6.3,19,0.00,,---,0.00,VWS V14.01,2013-12-19 12:31:00,
2013-12-19 06:32:00,47.8,7.6,24.86,West,270,0.0,4.0,19,0.00,,---,0.00,VWS V14.01,2013-12-19 12:32:00,
2013-12-19 06:33:00,48.0,7.7,24.86,West,264,2.7,3.1,19,0.00,,---,0.00,VWS V14.01,2013-12-19 12:33:00,
2013-12-19 06:34:00,48.0,7.7,24.86,West,264,4.0,4.0,19,0.00,,---,0.00,VWS V14.01,2013-12-19 12:34:00,
2013-12-19 06:38:00,48.0,7.7,24.86,WSW,258,0.0,3.1,19,0.00,,---,0.00,VWS V14.01,2013-12-19 12:38:00,
2013-12-19 06:39:00,48.0,7.7,24.86,WSW,258,2.2,2.7,19,0.00,,---,0.00,VWS V14.01,2013-12-19 12:39:00,
2013-12-19 06:40:00,48.0,7.7,24.86,West,259,3.6,3.6,19,0.00,,---,0.00,VWS V14.01,2013-12-19 12:40:00,
2013-12-19 06:41:00,48.0,7.7,24.86,West,268,3.1,3.6,19,0.00,,---,0.00,VWS V14.01,2013-12-19 12:41:00,
2013-12-19 06:44:00,48.0,7.7,24.86,West,265,2.2,2.7,19,0.00,,---,0.00,VWS V14.01,2013-12-19 12:44:00,
2013-12-19 06:45:00,48.0,7.7,24.86,West,267,2.7,4.0,19,0.00,,---,0.00,VWS V14.01,2013-12-19 12:45:00,
2013-12-19 06:47:00,48.0,7.7,24.86,West,274,3.1,4.0,19,0.00,,---,0.00,VWS V14.01,2013-12-19 12:47:00,
2013-12-19 06:49:00,48.0,7.7,24.86,West,276,2.7,3.6,19,0.00,,---,0.00,VWS V14.01,2013-12-19 12:49:00,
2013-12-19 06:53:00,48.0,7.7,24.86,West,259,2.7,6.3,19,0.00,,---,0.00,VWS V14.01,2013-12-19 12:53:00,
2013-12-19 06:55:00,48.0,7.7,24.86,WSW,257,0.0,0.0,19,0.00,,---,0.00,VWS V14.01,2013-12-19 12:55:00,
2013-12-19 06:56:00,47.8,7.6,24.86,WSW,257,0.0,0.0,19,0.00,,---,0.00,VWS V14.01,2013-12-19 12:56:00,
2013-12-19 06:57:00,47.8,7.6,24.86,West,270,4.0,4.5,19,0.00,,---,0.00,VWS V14.01,2013-12-19 12:57:00,
2013-12-19 06:59:00,47.7,7.4,24.86,West,265,3.1,4.0,19,0.00,,---,0.00,VWS V14.01,2013-12-19 12:59:00,
2013-12-19 07:00:00,47.7,7.4,24.86,West,267,2.7,4.0,19,0.00,,---,0.00,VWS V14.01,2013-12-19 13:00:00,
2013-12-19 07:03:00,47.5,7.3,24.86,WSW,252,2.7,4.0,19,0.00,,---,0.00,VWS V14.01,2013-12-19 13:03:00,
2013-12-19 07:04:00,47.5,7.3,24.86,WSW,258,3.1,3.1,19,0.00,,---,0.00,VWS V14.01,2013-12-19 13:04:00,
2013-12-19 07:09:00,47.7,7.4,24.86,WNW,288,0.0,2.7,19,0.00,,---,0.00,VWS V14.01,2013-12-19 13:09:00,
2013-12-19 07:10:00,47.7,7.4,24.86,WNW,288,0.0,0.0,19,0.00,,---,0.00,VWS V14.01,2013-12-19 13:10:00,
2013-12-19 07:11:00,47.7,7.4,24.86,WNW,283,3.1,3.1,19,0.00,,---,0.00,VWS V14.01,2013-12-19 13:11:00,
2013-12-19 07:13:00,47.5,7.3,24.86,WSW,256,5.8,5.8,19,0.00,,---,0.00,VWS V14.01,2013-12-19 13:13:00,
2013-12-19 07:16:00,47.3,7.1,24.86,West,259,0.0,3.6,19,0.00,,---,0.00,VWS V14.01,2013-12-19 13:16:00,
2013-12-19 07:17:00,47.3,7.1,24.86,SW,226,0.0,3.1,19,0.00,,---,0.00,VWS V14.01,2013-12-19 13:17:00,
2013-12-19 07:19:00,47.5,7.3,24.86,West,279,2.7,3.6,19,0.00,,---,0.00,VWS V14.01,2013-12-19 13:19:00,
2013-12-19 07:20:00,47.3,7.1,24.86,West,279,2.7,2.7,19,0.00,,---,0.00,VWS V14.01,2013-12-19 13:20:00,
2013-12-19 07:21:00,47.3,7.1,24.86,West,279,0.0,2.7,19,0.00,,---,0.00,VWS V14.01,2013-12-19 13:21:00,
2013-12-19 07:23:00,47.3,7.1,24.86,West,280,0.0,0.0,19,0.00,,---,0.00,VWS V14.01,2013-12-19 13:23:00,
2013-12-19 07:24:00,47.1,7.0,24.86,West,280,0.0,0.0,19,0.00,,---,0.00,VWS V14.01,2013-12-19 13:24:00,
2013-12-19 07:26:00,46.9,6.8,24.86,West,275,0.0,0.0,19,0.00,,---,0.00,VWS V14.01,2013-12-19 13:26:00,
2013-12-19 07:28:00,46.8,6.7,24.86,West,274,0.0,0.0,19,0.00,,---,0.00,VWS V14.01,2013-12-19 13:28:00,
2013-12-19 07:31:00,46.4,6.4,24.86,West,273,0.0,4.0,19,0.00,,---,0.00,VWS V14.01,2013-12-19 13:31:00,
2013-12-19 07:32:00,46.4,6.4,24.86,West,273,0.0,0.0,19,0.00,,---,0.00,VWS V14.01,2013-12-19 13:32:00,
2013-12-19 07:33:00,46.4,6.4,24.86,West,273,0.0,0.0,19,0.00,,---,0.00,VWS V14.01,2013-12-19 13:33:00,
2013-12-19 07:34:00,46.2,7.4,24.86,West,271,3.1,3.1,20,0.00,,---,0.00,VWS V14.01,2013-12-19 13:34:00,
2013-12-19 07:37:00,46.2,7.4,24.86,West,271,0.0,0.0,20,0.00,,---,0.00,VWS V14.01,2013-12-19 13:37:00,
2013-12-19 07:39:00,46.0,7.2,24.86,West,270,2.2,2.2,20,0.00,,---,0.00,VWS V14.01,2013-12-19 13:39:00,
2013-12-19 07:41:00,46.0,7.2,24.86,West,270,0.0,2.7,20,0.00,,---,0.00,VWS V14.01,2013-12-19 13:41:00,
2013-12-19 07:42:00,46.0,7.2,24.86,West,270,3.1,3.1,20,0.00,,---,0.00,VWS V14.01,2013-12-19 13:42:00,
2013-12-19 07:43:00,46.0,7.2,24.86,West,270,3.1,3.1,20,0.00,,---,0.00,VWS V14.01,2013-12-19 13:43:00,
2013-12-19 07:46:00,46.0,7.2,24.89,West,270,2.7,3.1,20,0.00,,---,0.00,VWS V14.01,2013-12-19 13:46:00,
2013-12-19 07:47:00,46.0,7.2,24.89,West,270,0.0,2.7,20,0.00,,---,0.00,VWS V14.01,2013-12-19 13:47:00,
2013-12-19 07:49:00,46.0,7.2,24.89,West,270,0.0,2.7,20,0.00,,---,0.00,VWS V14.01,2013-12-19 13:49:00,
2013-12-19 07:52:00,45.9,7.1,24.89,West,270,0.0,0.0,20,0.00,,---,0.00,VWS V14.01,2013-12-19 13:52:00,
2013-12-19 07:54:00,45.9,7.1,24.89,West,270,0.0,0.0,20,0.00,,---,0.00,VWS V14.01,2013-12-19 13:54:00,
2013-12-19 07:57:00,45.9,7.1,24.89,West,270,0.0,0.0,20,0.00,,---,0.00,VWS V14.01,2013-12-19 13:57:00,
2013-12-19 07:59:00,45.9,7.1,24.89,West,270,0.0,0.0,20,0.00,,---,0.00,VWS V14.01,2013-12-19 13:59:00,
2013-12-19 08:01:00,45.9,7.1,24.86,West,270,0.0,0.0,20,0.00,,---,0.00,VWS V14.01,2013-12-19 14:01:00,
2013-12-19 08:02:00,45.7,6.9,24.86,West,270,0.0,0.0,20,0.00,,---,0.00,VWS V14.01,2013-12-19 14:02:00,
2013-12-19 08:04:00,45.7,6.9,24.86,West,270,0.0,0.0,20,0.00,,---,0.00,VWS V14.01,2013-12-19 14:04:00,
2013-12-19 08:06:00,45.9,7.1,24.86,West,270,0.0,0.0,20,0.00,,---,0.00,VWS V14.01,2013-12-19 14:06:00,
2013-12-19 08:09:00,46.0,7.2,24.86,West,270,0.0,0.0,20,0.00,,---,0.00,VWS V14.01,2013-12-19 14:09:00,
2013-12-19 08:12:00,46.2,7.4,24.86,West,270,0.0,0.0,20,0.00,,---,0.00,VWS V14.01,2013-12-19 14:12:00,
2013-12-19 08:13:00,46.4,6.4,24.86,West,270,0.0,0.0,19,0.00,,---,0.00,VWS V14.01,2013-12-19 14:13:00,
2013-12-19 08:15:00,46.6,6.5,24.86,West,270,0.0,0.0,19,0.00,,---,0.00,VWS V14.01,2013-12-19 14:15:00,
2013-12-19 08:16:00,46.8,6.7,24.89,West,270,0.0,0.0,19,0.00,,---,0.00,VWS V14.01,2013-12-19 14:16:00,
2013-12-19 08:18:00,46.9,6.8,24.89,West,270,0.0,0.0,19,0.00,,---,0.00,VWS V14.01,2013-12-19 14:18:00,
2013-12-19 08:21:00,47.3,7.1,24.89,West,276,0.0,0.0,19,0.00,,---,0.00,VWS V14.01,2013-12-19 14:21:00,
2013-12-19 08:22:00,47.3,7.1,24.89,West,276,0.0,0.0,19,0.00,,---,0.00,VWS V14.01,2013-12-19 14:22:00,
2013-12-19 08:24:00,48.0,7.7,24.89,West,279,2.2,2.2,19,0.00,,---,0.00,VWS V14.01,2013-12-19 14:24:00,
2013-12-19 08:25:00,48.0,7.7,24.89,West,279,0.0,4.0,19,0.00,,---,0.00,VWS V14.01,2013-12-19 14:25:00,
2013-12-19 08:28:00,48.4,8.0,24.89,WSW,252,2.2,3.1,19,0.00,,---,0.00,VWS V14.01,2013-12-19 14:28:00,
2013-12-19 08:29:00,48.7,8.3,24.89,West,265,3.6,3.6,19,0.00,,---,0.00,VWS V14.01,2013-12-19 14:29:00,
2013-12-19 08:30:00,48.7,8.3,24.89,West,265,2.2,3.6,19,0.00,,---,0.00,VWS V14.01,2013-12-19 14:30:00,
2013-12-19 08:32:00,49.1,8.6,24.89,West,265,0.0,0.0,19,0.00,,---,0.00,VWS V14.01,2013-12-19 14:32:00,
2013-12-19 08:35:00,49.5,8.9,24.89,WSW,249,3.1,3.1,19,0.00,,---,0.00,VWS V14.01,2013-12-19 14:35:00,
2013-12-19 08:36:00,49.6,9.1,24.89,WSW,249,2.7,3.6,19,0.00,,---,0.00,VWS V14.01,2013-12-19 14:36:00,
2013-12-19 08:39:00,50.2,9.5,24.89,SSE,151,2.2,3.1,19,0.00,,---,0.00,VWS V14.01,2013-12-19 14:39:00,
2013-12-19 08:41:00,50.5,9.8,24.89,SSE,149,4.0,6.3,19,0.00,,---,0.00,VWS V14.01,2013-12-19 14:41:00,
2013-12-19 08:42:00,50.7,10.0,24.89,SSE,168,2.7,4.0,19,0.00,,---,0.00,VWS V14.01,2013-12-19 14:42:00,
2013-12-19 08:44:00,50.9,10.1,24.89,SSE,160,3.6,5.4,19,0.00,,---,0.00,VWS V14.01,2013-12-19 14:44:00,
2013-12-19 08:45:00,51.1,10.3,24.89,SSE,159,4.0,4.0,19,0.00,,---,0.00,VWS V14.01,2013-12-19 14:45:00,
2013-12-19 08:46:00,51.3,10.4,24.89,SSE,157,5.8,5.8,19,0.00,,---,0.00,VWS V14.01,2013-12-19 14:46:00,
2013-12-19 08:47:00,51.3,10.4,24.89,South,177,3.6,6.3,19,0.00,,---,0.00,VWS V14.01,2013-12-19 14:47:00,
2013-12-19 08:51:00,51.6,10.7,24.89,SSE,162,2.7,4.0,19,0.00,,---,0.00,VWS V14.01,2013-12-19 14:51:00,
2013-12-19 08:52:00,51.8,13.1,24.89,SSE,162,0.0,2.7,21,0.00,,---,0.00,VWS V14.01,2013-12-19 14:52:00,
2013-12-19 08:56:00,52.2,13.4,24.89,South,179,0.0,0.0,21,0.00,,---,0.00,VWS V14.01,2013-12-19 14:56:00,
2013-12-19 08:58:00,52.3,10.1,24.89,SSE,159,4.0,4.0,18,0.00,,---,0.00,VWS V14.01,2013-12-19 14:58:00,
2013-12-19 08:59:00,52.5,10.2,24.89,South,173,3.1,4.0,18,0.00,,---,0.00,VWS V14.01,2013-12-19 14:59:00,
2013-12-19 09:00:00,52.5,10.2,24.89,South,172,3.1,4.0,18,0.00,,---,0.00,VWS V14.01,2013-12-19 15:00:00,
2013-12-19 09:02:00,52.7,10.4,24.89,South,171,2.2,4.5,18,0.00,,---,0.00,VWS V14.01,2013-12-19 15:02:00,
2013-12-19 09:03:00,52.7,10.4,24.89,SSE,165,3.6,4.0,18,0.00,,---,0.00,VWS V14.01,2013-12-19 15:03:00,
2013-12-19 09:06:00,52.9,14.0,24.89,SSE,162,4.5,4.5,21,0.00,,---,0.00,VWS V14.01,2013-12-19 15:06:00,
2013-12-19 09:09:00,53.1,14.2,24.89,South,176,3.6,4.0,21,0.00,,---,0.00,VWS V14.01,2013-12-19 15:09:00,
2013-12-19 09:11:00,53.2,14.3,24.89,SSE,155,3.6,5.4,21,0.00,,---,0.00,VWS V14.01,2013-12-19 15:11:00,
2013-12-19 09:12:00,53.2,14.3,24.89,South,176,3.1,3.6,21,0.00,,---,0.00,VWS V14.01,2013-12-19 15:12:00,
2013-12-19 09:14:00,53.4,14.5,24.89,South,172,0.0,3.1,21,0.00,,---,0.00,VWS V14.01,2013-12-19 15:14:00,
2013-12-19 09:16:00,53.6,13.5,24.89,SSE,162,5.4,5.4,20,0.00,,---,0.00,VWS V14.01,2013-12-19 15:16:00,
2013-12-19 09:19:00,53.8,13.7,24.89,SE,144,3.6,5.4,20,0.00,,---,0.00,VWS V14.01,2013-12-19 15:19:00,
2013-12-19 09:20:00,54.0,13.8,24.89,SSW,206,4.0,4.0,20,0.00,,---,0.00,VWS V14.01,2013-12-19 15:20:00,
2013-12-19 09:21:00,54.0,13.8,24.89,South,179,0.0,5.4,20,0.00,,---,0.00,VWS V14.01,2013-12-19 15:21:00,
2013-12-19 09:25:00,54.1,14.0,24.89,WNW,295,2.7,3.1,20,0.00,,---,0.00,VWS V14.01,2013-12-19 15:25:00,
2013-12-19 09:26:00,54.3,14.1,24.89,SSW,192,3.1,3.6,20,0.00,,---,0.00,VWS V14.01,2013-12-19 15:26:00,
2013-12-19 09:28:00,54.3,14.1,24.89,South,191,0.0,0.0,20,0.00,,---,0.00,VWS V14.01,2013-12-19 15:28:00,
2013-12-19 09:30:00,54.5,14.3,24.89,South,170,0.0,6.3,20,0.00,,---,0.00,VWS V14.01,2013-12-19 15:30:00,
2013-12-19 09:31:00,54.5,14.3,24.89,SW,214,3.6,4.0,20,0.00,,---,0.00,VWS V14.01,2013-12-19 15:31:00,
2013-12-19 09:33:00,54.5,14.3,24.89,SW,234,4.0,4.0,20,0.00,,---,0.00,VWS V14.01,2013-12-19 15:33:00,
2013-12-19 09:35:00,54.5,14.3,24.89,WSW,254,2.7,4.0,20,0.00,,---,0.00,VWS V14.01,2013-12-19 15:35:00,
2013-12-19 09:36:00,54.5,14.3,24.89,South,183,5.8,5.8,20,0.00,,---,0.00,VWS V14.01,2013-12-19 15:36:00,
2013-12-19 09:39:00,54.5,14.3,24.89,South,174,3.6,5.4,20,0.00,,---,0.00,VWS V14.01,2013-12-19 15:39:00,
2013-12-19 09:40:00,54.7,14.4,24.89,South,179,5.4,5.4,20,0.00,,---,0.00,VWS V14.01,2013-12-19 15:40:00,
2013-12-19 09:41:00,54.7,14.4,24.89,SSE,167,5.8,7.6,20,0.00,,---,0.00,VWS V14.01,2013-12-19 15:41:00,
2013-12-19 09:45:00,54.5,14.3,24.89,SSE,152,0.0,5.4,20,0.00,,---,0.00,VWS V14.01,2013-12-19 15:45:00,
2013-12-19 09:47:00,54.5,14.3,24.89,South,169,5.8,7.6,20,0.00,,---,0.00,VWS V14.01,2013-12-19 15:47:00,
2013-12-19 09:48:00,54.5,14.3,24.89,South,178,3.6,5.8,20,0.00,,---,0.00,VWS V14.01,2013-12-19 15:48:00,
2013-12-19 09:50:00,54.5,11.9,24.89,WSW,255,3.1,3.1,18,0.00,,---,0.00,VWS V14.01,2013-12-19 15:50:00,
2013-12-19 09:51:00,54.3,11.7,24.89,WSW,240,3.1,4.5,18,0.00,,---,0.00,VWS V14.01,2013-12-19 15:51:00,
2013-12-19 09:54:00,54.3,11.7,24.89,SSW,204,4.0,6.3,18,0.00,,---,0.00,VWS V14.01,2013-12-19 15:54:00,
2013-12-19 09:55:00,54.3,11.7,24.89,SSE,155,3.1,5.8,18,0.00,,---,0.00,VWS V14.01,2013-12-19 15:55:00,
2013-12-19 09:58:00,54.3,11.7,24.89,South,182,5.4,7.2,18,0.00,,---,0.00,VWS V14.01,2013-12-19 15:58:00,
2013-12-19 09:59:00,54.1,11.6,24.89,South,183,2.7,5.4,18,0.00,,---,0.00,VWS V14.01,2013-12-19 15:59:00,
2013-12-19 10:00:00,54.1,11.6,24.89,South,190,5.8,6.7,18,0.00,,---,0.00,VWS V14.01,2013-12-19 16:00:00,
2013-12-19 10:01:00,54.1,11.6,24.89,South,189,4.9,6.3,18,0.00,,---,0.00,VWS V14.01,2013-12-19 16:01:00,
2013-12-19 10:02:00,54.1,11.6,24.89,South,172,5.4,5.4,18,0.00,,---,0.00,VWS V14.01,2013-12-19 16:02:00,
2013-12-19 10:06:00,54.1,11.6,24.89,South,181,0.0,3.6,18,0.00,,---,0.00,VWS V14.01,2013-12-19 16:06:00,
2013-12-19 10:07:00,54.1,11.6,24.89,SSE,162,4.0,4.9,18,0.00,,---,0.00,VWS V14.01,2013-12-19 16:07:00,
2013-12-19 10:08:00,54.1,11.6,24.89,South,184,4.0,5.4,18,0.00,,---,0.00,VWS V14.01,2013-12-19 16:08:00,
2013-12-19 10:09:00,54.3,11.7,24.89,South,186,4.9,6.3,18,0.00,,---,0.00,VWS V14.01,2013-12-19 16:09:00,
2013-12-19 10:10:00,54.3,14.1,24.89,South,178,6.3,6.3,20,0.00,,---,0.00,VWS V14.01,2013-12-19 16:10:00,
2013-12-19 10:12:00,54.3,14.1,24.89,SSE,166,6.7,6.7,20,0.00,,---,0.00,VWS V14.01,2013-12-19 16:12:00,
2013-12-19 10:15:00,54.5,14.3,24.89,South,180,7.6,7.6,20,0.00,,---,0.00,VWS V14.01,2013-12-19 16:15:00,
2013-12-19 10:17:00,54.5,14.3,24.89,SSE,154,4.9,7.6,20,0.00,,---,0.00,VWS V14.01,2013-12-19 16:17:00,
2013-12-19 10:18:00,54.5,11.9,24.89,SSE,158,2.2,4.9,18,0.00,,---,0.00,VWS V14.01,2013-12-19 16:18:00,
2013-12-19 10:19:00,54.5,11.9,24.89,SSE,160,0.0,2.2,18,0.00,,---,0.00,VWS V14.01,2013-12-19 16:19:00,
2013-12-19 10:20:00,54.5,14.3,24.89,SSE,166,3.1,3.6,20,0.00,,---,0.00,VWS V14.01,2013-12-19 16:20:00,
2013-12-19 10:21:00,54.5,14.3,24.89,South,176,3.6,3.6,20,0.00,,---,0.00,VWS V14.01,2013-12-19 16:21:00,
2013-12-19 10:23:00,54.5,11.9,24.89,South,171,4.0,4.5,18,0.00,,---,0.00,VWS V14.01,2013-12-19 16:23:00,
2013-12-19 10:26:00,55.0,14.7,24.89,SSE,152,4.9,4.9,20,0.00,,---,0.00,VWS V14.01,2013-12-19 16:26:00,
2013-12-19 10:27:00,55.0,14.7,24.89,SSE,151,5.4,6.3,20,0.00,,---,0.00,VWS V14.01,2013-12-19 16:27:00,
2013-12-19 10:29:00,55.4,15.0,24.89,SSE,155,6.3,6.3,20,0.00,,---,0.00,VWS V14.01,2013-12-19 16:29:00,
2013-12-19 10:31:00,55.4,15.0,24.89,SSE,151,7.6,7.6,20,0.00,,---,0.00,VWS V14.01,2013-12-19 16:31:00,
2013-12-19 10:32:00,55.8,15.3,24.89,SSE,157,4.0,6.3,20,0.00,,---,0.00,VWS V14.01,2013-12-19 16:32:00,
2013-12-19 10:35:00,55.9,15.5,24.89,NW,309,0.0,0.0,20,0.00,,---,0.00,VWS V14.01,2013-12-19 16:35:00,
2013-12-19 10:38:00,56.5,15.9,24.89,NW,309,0.0,0.0,20,0.00,,---,0.00,VWS V14.01,2013-12-19 16:38:00,
2013-12-19 10:39:00,56.7,16.1,24.89,NNW,345,0.0,0.0,20,0.00,,---,0.00,VWS V14.01,2013-12-19 16:39:00,
2013-12-19 10:40:00,56.8,16.2,24.89,North,10,0.0,0.0,20,0.00,,---,0.00,VWS V14.01,2013-12-19 16:40:00,
2013-12-19 10:43:00,57.6,15.6,24.89,NNW,329,0.0,0.0,19,0.00,,---,0.00,VWS V14.01,2013-12-19 16:43:00,
2013-12-19 10:45:00,57.7,15.8,24.89,NW,325,0.0,3.1,19,0.00,,---,0.00,VWS V14.01,2013-12-19 16:45:00,
2013-12-19 10:47:00,58.1,16.1,24.89,NW,326,0.0,0.0,19,0.00,,---,0.00,VWS V14.01,2013-12-19 16:47:00,
2013-12-19 10:49:00,58.3,16.2,24.89,NW,326,0.0,0.0,19,0.00,,---,0.00,VWS V14.01,2013-12-19 16:49:00,
2013-12-19 10:51:00,58.5,16.4,24.89,West,281,0.0,3.6,19,0.00,,---,0.00,VWS V14.01,2013-12-19 16:51:00,
2013-12-19 10:53:00,58.8,16.7,24.89,NW,310,2.7,4.9,19,0.00,,---,0.00,VWS V14.01,2013-12-19 16:53:00,
2013-12-19 10:54:00,59.0,16.8,24.89,WNW,303,2.7,4.9,19,0.00,,---,0.00,VWS V14.01,2013-12-19 16:54:00,
2013-12-19 10:55:00,59.2,17.0,24.89,West,276,4.0,4.0,19,0.00,,---,0.00,VWS V14.01,2013-12-19 16:55:00,
2013-12-19 10:58:00,59.5,17.3,24.89,WSW,240,7.6,7.6,19,0.00,,---,0.00,VWS V14.01,2013-12-19 16:58:00,
2013-12-19 11:00:00,59.7,17.4,24.89,WSW,249,4.0,4.0,19,0.00,,---,0.00,VWS V14.01,2013-12-19 17:00:00,
2013-12-19 11:02:00,60.1,17.7,24.89,West,267,2.7,3.1,19,0.00,,---,0.00,VWS V14.01,2013-12-19 17:02:00,
2013-12-19 11:03:00,60.1,17.7,24.89,NW,316,7.2,7.2,19,0.00,,---,0.00,VWS V14.01,2013-12-19 17:03:00,
2013-12-19 11:05:00,60.3,17.9,24.89,WNW,285,8.3,8.3,19,0.00,,---,0.00,VWS V14.01,2013-12-19 17:05:00,
2013-12-19 11:08:00,60.8,18.3,24.89,WNW,289,6.3,6.3,19,0.00,,---,0.00,VWS V14.01,2013-12-19 17:08:00,
2013-12-19 11:10:00,61.3,18.8,24.89,WSW,250,3.6,5.4,19,0.00,,---,0.00,VWS V14.01,2013-12-19 17:10:00,
2013-12-19 11:11:00,61.3,18.8,24.89,SW,230,4.0,5.4,19,0.00,,---,0.00,VWS V14.01,2013-12-19 17:11:00,
2013-12-19 11:12:00,61.5,18.9,24.89,WSW,243,5.4,8.1,19,0.00,,---,0.00,VWS V14.01,2013-12-19 17:12:00,
2013-12-19 11:13:00,61.7,19.0,24.89,SW,230,5.4,6.3,19,0.00,,---,0.00,VWS V14.01,2013-12-19 17:13:00,
2013-12-19 11:15:00,61.9,19.2,24.89,WNW,292,6.3,6.3,19,0.00,,---,0.00,VWS V14.01,2013-12-19 17:15:00,
2013-12-19 11:17:00,62.1,19.3,24.89,WNW,301,6.3,6.3,19,0.00,,---,0.00,VWS V14.01,2013-12-19 17:17:00,
2013-12-19 11:18:00,62.1,19.3,24.89,WSW,252,3.1,6.3,19,0.00,,---,0.00,VWS V14.01,2013-12-19 17:18:00,
2013-12-19 11:20:00,62.1,19.3,24.89,SW,228,5.4,5.4,19,0.00,,---,0.00,VWS V14.01,2013-12-19 17:20:00,
2013-12-19 11:21:00,62.1,19.3,24.89,South,177,3.1,5.4,19,0.00,,---,0.00,VWS V14.01,2013-12-19 17:21:00,
2013-12-19 11:25:00,62.1,19.3,24.89,West,275,2.2,3.6,19,0.00,,---,0.00,VWS V14.01,2013-12-19 17:25:00,
2013-12-19 11:26:00,62.1,19.3,24.89,WNW,284,3.6,5.4,19,0.00,,---,0.00,VWS V14.01,2013-12-19 17:26:00,
2013-12-19 11:27:00,62.1,19.3,24.89,SW,234,2.7,5.4,19,0.00,,---,0.00,VWS V14.01,2013-12-19 17:27:00,
2013-12-19 11:29:00,62.2,19.5,24.89,SSW,203,3.1,5.4,19,0.00,,---,0.00,VWS V14.01,2013-12-19 17:29:00,
2013-12-19 11:30:00,62.2,19.5,24.89,West,272,6.7,6.7,19,0.00,,---,0.00,VWS V14.01,2013-12-19 17:30:00,
2013-12-19 11:31:00,62.4,19.6,24.89,West,272,8.1,10.5,19,0.00,,---,0.00,VWS V14.01,2013-12-19 17:31:00,
2013-12-19 11:42:00,63.9,19.6,24.89,WSW,255,5.8,6.3,18,0.00,,---,0.00,VWS V14.01,2013-12-19 17:42:00,
2013-12-19 11:43:00,64.0,19.7,24.89,West,267,4.0,10.1,18,0.00,,---,0.00,VWS V14.01,2013-12-19 17:43:00,
2013-12-19 11:45:00,64.4,20.0,24.89,WNW,295,14.1,17.9,18,0.00,,---,0.00,VWS V14.01,2013-12-19 17:45:00,
2013-12-19 11:46:00,64.6,20.1,24.86,NW,316,11.0,14.1,18,0.00,,---,0.00,VWS V14.01,2013-12-19 17:46:00,
2013-12-19 11:47:00,64.9,20.4,24.86,WNW,288,9.2,12.8,18,0.00,,---,0.00,VWS V14.01,2013-12-19 17:47:00,
2013-12-19 11:50:00,65.5,20.9,24.86,WNW,297,11.0,11.0,18,0.00,,---,0.00,VWS V14.01,2013-12-19 17:50:00,
2013-12-19 11:52:00,65.7,21.0,24.86,West,262,7.6,10.5,18,0.00,,---,0.00,VWS V14.01,2013-12-19 17:52:00,
2013-12-19 11:54:00,65.8,21.2,24.86,WSW,241,3.6,5.8,18,0.00,,---,0.00,VWS V14.01,2013-12-19 17:54:00,
2013-12-19 11:55:00,66.0,21.3,24.86,West,277,3.6,5.4,18,0.00,,---,0.00,VWS V14.01,2013-12-19 17:55:00,
2013-12-19 11:57:00,66.2,20.1,24.86,SW,223,6.3,8.1,17,0.00,,---,0.00,VWS V14.01,2013-12-19 17:57:00,
2013-12-19 11:59:00,66.4,20.3,24.86,West,280,11.0,11.0,17,0.00,,---,0.00,VWS V14.01,2013-12-19 17:59:00,
2013-12-19 12:00:00,66.4,20.3,24.86,NW,317,8.1,11.0,17,0.00,,---,0.00,VWS V14.01,2013-12-19 18:00:00,
2013-12-19 12:01:00,66.6,20.4,24.86,WNW,295,10.1,13.2,17,0.00,,---,0.00,VWS V14.01,2013-12-19 18:01:00,
2013-12-19 12:05:00,66.6,20.4,24.86,West,276,12.3,13.2,17,0.00,,---,0.00,VWS V14.01,2013-12-19 18:05:00,
2013-12-19 12:06:00,66.7,20.6,24.86,West,269,12.3,12.8,17,0.00,,---,0.00,VWS V14.01,2013-12-19 18:06:00,
2013-12-19 12:07:00,66.7,20.6,24.86,WNW,288,10.1,12.8,17,0.00,,---,0.00,VWS V14.01,2013-12-19 18:07:00,
2013-12-19 12:08:00,66.9,20.7,24.86,WNW,302,12.3,12.8,17,0.00,,---,0.00,VWS V14.01,2013-12-19 18:08:00,
2013-12-19 12:09:00,67.1,20.9,24.86,WNW,286,8.3,16.3,17,0.00,,---,0.00,VWS V14.01,2013-12-19 18:09:00,
2013-12-19 12:12:00,67.3,21.0,24.86,WNW,303,15.0,15.4,17,0.00,,---,0.00,VWS V14.01,2013-12-19 18:12:00,
2013-12-19 12:15:00,67.6,21.3,24.86,WNW,298,10.5,15.4,17,0.00,,---,0.00,VWS V14.01,2013-12-19 18:15:00,
2013-12-19 12:17:00,67.6,21.3,24.86,WNW,285,8.7,12.3,17,0.00,,---,0.00,VWS V14.01,2013-12-19 18:17:00,
2013-12-19 12:18:00,67.6,21.3,24.86,WNW,289,6.3,15.4,17,0.00,,---,0.00,VWS V14.01,2013-12-19 18:18:00,
2013-12-19 12:19:00,67.6,21.3,24.86,West,268,12.3,12.3,17,0.00,,---,0.00,VWS V14.01,2013-12-19 18:19:00,
2013-12-19 12:20:00,67.6,21.3,24.86,West,278,12.3,14.5,17,0.00,,---,0.00,VWS V14.01,2013-12-19 18:20:00,
2013-12-19 12:21:00,67.8,21.5,24.86,WNW,296,17.0,18.3,17,0.00,,---,0.00,VWS V14.01,2013-12-19 18:21:00,
2013-12-19 12:23:00,67.8,21.5,24.86,NW,322,8.3,12.8,17,0.00,,---,0.00,VWS V14.01,2013-12-19 18:23:00,
2013-12-19 12:24:00,67.8,21.5,24.86,West,281,13.2,14.5,17,0.00,,---,0.00,VWS V14.01,2013-12-19 18:24:00,
2013-12-19 12:25:00,67.8,21.5,24.86,WNW,292,11.9,18.3,17,0.00,,---,0.00,VWS V14.01,2013-12-19 18:25:00,
2013-12-19 12:27:00,68.0,21.6,24.86,West,276,15.0,16.3,17,0.00,,---,0.00,VWS V14.01,2013-12-19 18:27:00,
2013-12-19 12:29:00,68.0,21.6,24.86,NW,304,15.0,15.9,17,0.00,,---,0.00,VWS V14.01,2013-12-19 18:29:00,
2013-12-19 12:31:00,68.0,21.6,24.86,WNW,295,8.3,10.1,17,0.00,,---,0.00,VWS V14.01,2013-12-19 18:31:00,
2013-12-19 12:32:00,68.0,21.6,24.86,WNW,291,17.4,17.4,17,0.00,,---,0.00,VWS V14.01,2013-12-19 18:32:00,
2013-12-19 12:39:00,68.0,21.6,24.86,WNW,291,15.4,18.3,17,0.00,,---,0.00,VWS V14.01,2013-12-19 18:39:00,
2013-12-19 12:41:00,68.0,21.6,24.86,NW,304,10.5,15.4,17,0.00,,---,0.00,VWS V14.01,2013-12-19 18:41:00,
2013-12-19 12:42:00,68.0,21.6,24.86,WNW,298,10.5,17.4,17,0.00,,---,0.00,VWS V14.01,2013-12-19 18:42:00,
2013-12-19 12:43:00,68.0,21.6,24.86,WSW,256,15.4,15.4,17,0.00,,---,0.00,VWS V14.01,2013-12-19 18:43:00,
2013-12-19 12:45:00,68.0,21.6,24.86,WNW,298,15.0,15.4,17,0.00,,---,0.00,VWS V14.01,2013-12-19 18:45:00,
2013-12-19 12:48:00,68.2,21.7,24.86,WNW,303,15.4,15.4,17,0.00,,---,0.00,VWS V14.01,2013-12-19 18:48:00,
2013-12-19 12:50:00,68.4,21.9,24.86,West,273,14.5,14.5,17,0.00,,---,0.00,VWS V14.01,2013-12-19 18:50:00,
2013-12-19 12:52:00,68.4,21.9,24.86,West,281,12.8,15.0,17,0.00,,---,0.00,VWS V14.01,2013-12-19 18:52:00,
2013-12-19 12:54:00,68.4,21.9,24.86,WNW,295,17.4,17.4,17,0.00,,---,0.00,VWS V14.01,2013-12-19 18:54:00,
2013-12-19 12:55:00,68.4,21.9,24.86,NW,310,13.2,17.4,17,0.00,,---,0.00,VWS V14.01,2013-12-19 18:55:00,
2013-12-19 12:57:00,68.4,21.9,24.86,West,268,8.7,15.4,17,0.00,,---,0.00,VWS V14.01,2013-12-19 18:57:00,
2013-12-19 12:58:00,68.4,21.9,24.86,WNW,294,8.3,10.1,17,0.00,,---,0.00,VWS V14.01,2013-12-19 18:58:00,
2013-12-19 12:59:00,68.4,21.9,24.86,WNW,283,10.5,15.0,17,0.00,,---,0.00,VWS V14.01,2013-12-19 18:59:00,
2013-12-19 13:00:00,68.4,21.9,24.86,WNW,294,6.3,10.5,17,0.00,,---,0.00,VWS V14.01,2013-12-19 19:00:00,
2013-12-19 13:01:00,68.5,22.0,24.86,West,275,12.3,14.1,17,0.00,,---,0.00,VWS V14.01,2013-12-19 19:01:00,
2013-12-19 13:02:00,68.5,22.0,24.83,WNW,287,12.8,13.2,17,0.00,,---,0.00,VWS V14.01,2013-12-19 19:02:00,
2013-12-19 13:05:00,68.9,22.3,24.83,SW,223,13.2,13.2,17,0.00,,---,0.00,VWS V14.01,2013-12-19 19:05:00,
2013-12-19 13:06:00,68.9,22.3,24.83,NW,305,13.2,13.2,17,0.00,,---,0.00,VWS V14.01,2013-12-19 19:06:00,
2013-12-19 13:08:00,68.7,22.2,24.83,WNW,299,11.9,13.2,17,0.00,,---,0.00,VWS V14.01,2013-12-19 19:08:00,
2013-12-19 13:09:00,68.7,22.2,24.83,WNW,291,10.1,14.5,17,0.00,,---,0.00,VWS V14.01,2013-12-19 19:09:00,
2013-12-19 13:10:00,68.7,22.2,24.83,West,270,15.0,17.9,17,0.00,,---,0.00,VWS V14.01,2013-12-19 19:10:00,
2013-12-19 13:13:00,68.7,22.2,24.83,West,274,10.1,15.0,17,0.00,,---,0.00,VWS V14.01,2013-12-19 19:13:00,
2013-12-19 13:14:00,68.7,22.2,24.83,WNW,295,15.0,17.4,17,0.00,,---,0.00,VWS V14.01,2013-12-19 19:14:00,
2013-12-19 13:17:00,68.7,22.2,24.83,West,273,15.4,15.4,17,0.00,,---,0.00,VWS V14.01,2013-12-19 19:17:00,
2013-12-19 13:18:00,68.7,22.2,24.83,WSW,256,10.5,15.4,17,0.00,,---,0.00,VWS V14.01,2013-12-19 19:18:00,
2013-12-19 13:20:00,68.7,22.2,24.83,WNW,289,11.0,13.2,17,0.00,,---,0.00,VWS V14.01,2013-12-19 19:20:00,
2013-12-19 13:21:00,68.7,22.2,24.83,WNW,298,12.3,15.0,17,0.00,,---,0.00,VWS V14.01,2013-12-19 19:21:00,
2013-12-19 13:23:00,68.7,22.2,24.83,West,262,8.3,12.3,17,0.00,,---,0.00,VWS V14.01,2013-12-19 19:23:00,
2013-12-19 13:24:00,68.9,22.3,24.83,WNW,289,10.1,10.5,17,0.00,,---,0.00,VWS V14.01,2013-12-19 19:24:00,
2013-12-19 13:27:00,69.1,22.5,24.83,WSW,247,10.1,10.1,17,0.00,,---,0.00,VWS V14.01,2013-12-19 19:27:00,
2013-12-19 13:28:00,69.3,22.6,24.83,West,278,13.6,13.6,17,0.00,,---,0.00,VWS V14.01,2013-12-19 19:28:00,
2013-12-19 13:29:00,69.3,22.6,24.83,WSW,245,8.7,15.0,17,0.00,,---,0.00,VWS V14.01,2013-12-19 19:29:00,
2013-12-19 13:30:00,69.3,22.6,24.83,NNW,333,15.4,16.3,17,0.00,,---,0.00,VWS V14.01,2013-12-19 19:30:00,
2013-12-19 13:34:00,69.1,22.5,24.83,WNW,288,13.2,13.2,17,0.00,,---,0.00,VWS V14.01,2013-12-19 19:34:00,
2013-12-19 13:35:00,68.9,22.3,24.83,West,271,12.3,13.2,17,0.00,,---,0.00,VWS V14.01,2013-12-19 19:35:00,
2013-12-19 13:36:00,68.9,22.3,24.83,West,265,10.5,12.3,17,0.00,,---,0.00,VWS V14.01,2013-12-19 19:36:00,
2013-12-19 13:37:00,69.1,22.5,24.83,WNW,294,13.6,13.6,17,0.00,,---,0.00,VWS V14.01,2013-12-19 19:37:00,
2013-12-19 13:38:00,69.1,22.5,24.83,WNW,301,13.2,13.6,17,0.00,,---,0.00,VWS V14.01,2013-12-19 19:38:00,
2013-12-19 13:42:00,69.3,22.6,24.83,NW,304,11.0,15.0,17,0.00,,---,0.00,VWS V14.01,2013-12-19 19:42:00,
2013-12-19 13:43:00,69.3,22.6,24.83,WNW,303,8.3,11.0,17,0.00,,---,0.00,VWS V14.01,2013-12-19 19:43:00,
2013-12-19 13:44:00,69.4,22.8,24.83,WNW,287,13.2,13.2,17,0.00,,---,0.00,VWS V14.01,2013-12-19 19:44:00,
2013-12-19 13:48:00,69.4,22.8,24.81,WNW,288,16.8,16.8,17,0.00,,---,0.00,VWS V14.01,2013-12-19 19:48:00,
2013-12-19 13:49:00,69.6,22.9,24.81,NW,311,8.3,16.8,17,0.00,,---,0.00,VWS V14.01,2013-12-19 19:49:00,
2013-12-19 13:54:00,69.6,22.9,24.81,WNW,294,10.1,12.3,17,0.00,,---,0.00,VWS V14.01,2013-12-19 19:54:00,
2013-12-19 13:56:00,69.4,22.8,24.81,WNW,290,8.7,8.7,17,0.00,,---,0.00,VWS V14.01,2013-12-19 19:56:00,
2013-12-19 13:58:00,69.4,22.8,24.81,NW,309,10.1,12.8,17,0.00,,---,0.00,VWS V14.01,2013-12-19 19:58:00,
2013-12-19 13:59:00,69.4,22.8,24.81,West,275,8.1,10.1,17,0.00,,---,0.00,VWS V14.01,2013-12-19 19:59:00,
2013-12-19 14:01:00,69.4,22.8,24.81,SW,214,4.9,8.3,17,0.00,,---,0.00,VWS V14.01,2013-12-19 20:01:00,
2013-12-19 14:04:00,69.6,22.9,24.81,WNW,302,10.1,11.0,17,0.00,,---,0.00,VWS V14.01,2013-12-19 20:04:00,
2013-12-19 14:05:00,69.6,22.9,24.81,WNW,282,17.0,17.0,17,0.00,,---,0.00,VWS V14.01,2013-12-19 20:05:00,
2013-12-19 14:07:00,69.6,22.9,24.81,WNW,295,11.4,19.7,17,0.00,,---,0.00,VWS V14.01,2013-12-19 20:07:00,
2013-12-19 14:09:00,69.4,22.8,24.81,NW,320,14.5,14.5,17,0.00,,---,0.00,VWS V14.01,2013-12-19 20:09:00,
2013-12-19 14:13:00,69.3,22.6,24.81,WNW,289,15.4,17.0,17,0.00,,---,0.00,VWS V14.01,2013-12-19 20:13:00,
2013-12-19 14:15:00,69.1,22.5,24.81,WSW,243,10.1,13.2,17,0.00,,---,0.00,VWS V14.01,2013-12-19 20:15:00,
2013-12-19 14:16:00,69.1,22.5,24.81,WNW,292,8.3,12.8,17,0.00,,---,0.00,VWS V14.01,2013-12-19 20:16:00,
2013-12-19 14:17:00,69.1,22.5,24.81,WNW,285,13.2,15.4,17,0.00,,---,0.00,VWS V14.01,2013-12-19 20:17:00,
2013-12-19 14:18:00,69.1,22.5,24.81,WNW,289,17.0,17.0,17,0.00,,---,0.00,VWS V14.01,2013-12-19 20:18:00,
2013-12-19 14:21:00,69.1,22.5,24.81,WSW,241,11.0,12.8,17,0.00,,---,0.00,VWS V14.01,2013-12-19 20:21:00,
2013-12-19 14:22:00,69.1,22.5,24.81,NW,313,10.1,11.0,17,0.00,,---,0.00,VWS V14.01,2013-12-19 20:22:00,
2013-12-19 14:23:00,69.1,22.5,24.81,NW,314,10.1,16.3,17,0.00,,---,0.00,VWS V14.01,2013-12-19 20:23:00,
2013-12-19 14:24:00,69.3,22.6,24.81,West,266,13.2,15.0,17,0.00,,---,0.00,VWS V14.01,2013-12-19 20:24:00,
2013-12-19 14:25:00,69.3,22.6,24.81,WSW,254,10.1,13.2,17,0.00,,---,0.00,VWS V14.01,2013-12-19 20:25:00,
2013-12-19 14:28:00,69.3,22.6,24.81,WNW,284,6.3,10.1,17,0.00,,---,0.00,VWS V14.01,2013-12-19 20:28:00,
2013-12-19 14:29:00,69.3,22.6,24.81,West,277,8.7,8.7,17,0.00,,---,0.00,VWS V14.01,2013-12-19 20:29:00,
2013-12-19 14:32:00,69.6,22.9,24.81,WNW,303,15.0,15.0,17,0.00,,---,0.00,VWS V14.01,2013-12-19 20:32:00,
2013-12-19 14:34:00,69.6,22.9,24.81,WSW,253,11.0,15.4,17,0.00,,---,0.00,VWS V14.01,2013-12-19 20:34:00,
2013-12-19 14:35:00,69.4,22.8,24.81,WNW,300,11.0,12.8,17,0.00,,---,0.00,VWS V14.01,2013-12-19 20:35:00,
2013-12-19 14:36:00,69.4,22.8,24.81,WSW,244,11.0,13.6,17,0.00,,---,0.00,VWS V14.01,2013-12-19 20:36:00,
2013-12-19 14:38:00,69.4,22.8,24.81,WSW,256,10.5,11.0,17,0.00,,---,0.00,VWS V14.01,2013-12-19 20:38:00,
2013-12-19 14:40:00,69.6,22.9,24.81,WNW,297,12.8,12.8,17,0.00,,---,0.00,VWS V14.01,2013-12-19 20:40:00,
2013-12-19 14:44:00,70.0,23.2,24.81,NNW,335,14.1,14.1,17,0.00,,---,0.00,VWS V14.01,2013-12-19 20:44:00,
2013-12-19 14:46:00,69.8,23.1,24.81,WNW,289,11.0,11.9,17,0.00,,---,0.00,VWS V14.01,2013-12-19 20:46:00,
2013-12-19 14:47:00,69.8,23.1,24.81,West,270,10.1,12.8,17,0.00,,---,0.00,VWS V14.01,2013-12-19 20:47:00,
2013-12-19 14:50:00,69.6,22.9,24.81,WNW,286,8.3,13.2,17,0.00,,---,0.00,VWS V14.01,2013-12-19 20:50:00,
2013-12-19 14:51:00,69.6,22.9,24.81,WNW,289,18.8,18.8,17,0.00,,---,0.00,VWS V14.01,2013-12-19 20:51:00,
2013-12-19 14:53:00,69.4,22.8,24.81,WNW,285,15.9,15.9,17,0.00,,---,0.00,VWS V14.01,2013-12-19 20:53:00,
2013-12-19 14:54:00,69.4,22.8,24.81,WNW,300,13.2,15.9,17,0.00,,---,0.00,VWS V14.01,2013-12-19 20:54:00,
2013-12-19 14:55:00,69.4,22.8,24.81,WNW,302,8.3,19.2,17,0.00,,---,0.00,VWS V14.01,2013-12-19 20:55:00,
2013-12-19 14:56:00,69.4,22.8,24.81,WNW,290,18.8,18.8,17,0.00,,---,0.00,VWS V14.01,2013-12-19 20:56:00,
2013-12-19 14:58:00,69.4,22.8,24.81,NW,307,10.5,13.2,17,0.00,,---,0.00,VWS V14.01,2013-12-19 20:58:00,
2013-12-19 15:00:00,69.4,22.8,24.81,WNW,282,11.4,15.0,17,0.00,,---,0.00,VWS V14.01,2013-12-19 21:00:00,
2013-12-19 15:02:00,69.4,22.8,24.81,West,279,11.0,12.8,17,0.00,,---,0.00,VWS V14.01,2013-12-19 21:02:00,
2013-12-19 15:04:00,69.4,22.8,24.81,WNW,287,8.1,12.8,17,0.00,,---,0.00,VWS V14.01,2013-12-19 21:04:00,
2013-12-19 15:06:00,69.4,22.8,24.81,WNW,299,5.4,10.5,17,0.00,,---,0.00,VWS V14.01,2013-12-19 21:06:00,
2013-12-19 15:08:00,69.4,22.8,24.81,WNW,299,11.0,11.0,17,0.00,,---,0.00,VWS V14.01,2013-12-19 21:08:00,
2013-12-19 15:09:00,69.4,22.8,24.81,NW,305,17.4,21.5,17,0.00,,---,0.00,VWS V14.01,2013-12-19 21:09:00,
2013-12-19 15:10:00,69.6,22.9,24.81,WNW,285,15.4,17.4,17,0.00,,---,0.00,VWS V14.01,2013-12-19 21:10:00,
2013-12-19 15:11:00,69.4,22.8,24.81,WNW,297,14.5,15.4,17,0.00,,---,0.00,VWS V14.01,2013-12-19 21:11:00,
2013-12-19 15:12:00,69.4,22.8,24.81,West,280,8.1,14.5,17,0.00,,---,0.00,VWS V14.01,2013-12-19 21:12:00,
2013-12-19 15:15:00,69.4,22.8,24.81,WSW,257,8.3,13.2,17,0.00,,---,0.00,VWS V14.01,2013-12-19 21:15:00,
2013-12-19 15:16:00,69.4,22.8,24.81,NW,312,6.3,12.3,17,0.00,,---,0.00,VWS V14.01,2013-12-19 21:16:00,
2013-12-19 15:17:00,69.6,22.9,24.81,WNW,290,5.8,8.3,17,0.00,,---,0.00,VWS V14.01,2013-12-19 21:17:00,
2013-12-19 15:18:00,69.6,22.9,24.81,SW,234,6.3,9.6,17,0.00,,---,0.00,VWS V14.01,2013-12-19 21:18:00,
2013-12-19 15:19:00,69.6,22.9,24.81,West,280,6.3,8.7,17,0.00,,---,0.00,VWS V14.01,2013-12-19 21:19:00,
2013-12-19 15:21:00,69.6,22.9,24.81,WSW,239,6.3,12.8,17,0.00,,---,0.00,VWS V14.01,2013-12-19 21:21:00,
2013-12-19 15:23:00,69.6,22.9,24.81,WNW,285,8.3,14.5,17,0.00,,---,0.00,VWS V14.01,2013-12-19 21:23:00,
2013-12-19 15:24:00,69.6,22.9,24.81,West,277,16.8,16.8,17,0.00,,---,0.00,VWS V14.01,2013-12-19 21:24:00,
2013-12-19 15:26:00,69.6,22.9,24.81,WNW,286,15.4,15.4,17,0.00,,---,0.00,VWS V14.01,2013-12-19 21:26:00,
2013-12-19 15:28:00,69.4,22.8,24.81,West,281,8.1,13.2,17,0.00,,---,0.00,VWS V14.01,2013-12-19 21:28:00,
2013-12-19 15:29:00,69.4,22.8,24.81,NW,323,4.0,8.1,17,0.00,,---,0.00,VWS V14.01,2013-12-19 21:29:00,
2013-12-19 15:33:00,69.3,22.6,24.78,WNW,290,8.1,8.3,17,0.00,,---,0.00,VWS V14.01,2013-12-19 21:33:00,
2013-12-19 15:34:00,69.3,22.6,24.78,West,279,11.0,11.4,17,0.00,,---,0.00,VWS V14.01,2013-12-19 21:34:00,
2013-12-19 15:35:00,69.3,22.6,24.78,West,271,10.5,13.2,17,0.00,,---,0.00,VWS V14.01,2013-12-19 21:35:00,
2013-12-19 15:37:00,69.3,22.6,24.78,WNW,291,7.6,7.6,17,0.00,,---,0.00,VWS V14.01,2013-12-19 21:37:00,
2013-12-19 15:39:00,69.3,22.6,24.78,North,0,5.4,8.1,17,0.00,,---,0.00,VWS V14.01,2013-12-19 21:39:00,
2013-12-19 15:40:00,69.4,22.8,24.78,WNW,290,3.1,6.3,17,0.00,,---,0.00,VWS V14.01,2013-12-19 21:40:00,
2013-12-19 15:42:00,69.4,22.8,24.78,WNW,301,17.4,17.4,17,0.00,,---,0.00,VWS V14.01,2013-12-19 21:42:00,
2013-12-19 15:43:00,69.4,22.8,24.78,NW,314,10.1,17.4,17,0.00,,---,0.00,VWS V14.01,2013-12-19 21:43:00,
2013-12-19 15:44:00,69.4,22.8,24.78,WNW,295,8.7,10.1,17,0.00,,---,0.00,VWS V14.01,2013-12-19 21:44:00,
2013-12-19 15:45:00,69.4,22.8,24.78,West,277,8.3,11.0,17,0.00,,---,0.00,VWS V14.01,2013-12-19 21:45:00,
2013-12-19 15:46:00,69.4,22.8,24.78,SSE,167,5.4,10.5,17,0.00,,---,0.00,VWS V14.01,2013-12-19 21:46:00,
2013-12-19 15:47:00,69.4,22.8,24.81,West,260,11.0,11.0,17,0.00,,---,0.00,VWS V14.01,2013-12-19 21:47:00,
2013-12-19 15:48:00,69.4,22.8,24.81,SW,223,8.7,11.9,17,0.00,,---,0.00,VWS V14.01,2013-12-19 21:48:00,
2013-12-19 15:52:00,69.3,22.6,24.81,West,278,5.8,8.7,17,0.00,,---,0.00,VWS V14.01,2013-12-19 21:52:00,
2013-12-19 15:53:00,69.3,22.6,24.81,SW,218,6.3,8.3,17,0.00,,---,0.00,VWS V14.01,2013-12-19 21:53:00,
2013-12-19 15:54:00,69.4,22.8,24.81,West,266,8.7,10.5,17,0.00,,---,0.00,VWS V14.01,2013-12-19 21:54:00,
2013-12-19 15:55:00,69.4,22.8,24.81,West,266,8.7,8.7,17,0.00,,---,0.00,VWS V14.01,2013-12-19 21:55:00,
2013-12-19 15:58:00,69.4,22.8,24.81,WNW,287,13.2,15.4,17,0.00,,---,0.00,VWS V14.01,2013-12-19 21:58:00,
2013-12-19 15:59:00,69.4,22.8,24.81,WSW,250,10.5,13.2,17,0.00,,---,0.00,VWS V14.01,2013-12-19 21:59:00,
2013-12-19 16:00:00,69.4,22.8,24.81,WSW,254,8.7,10.5,17,0.00,,---,0.00,VWS V14.01,2013-12-19 22:00:00,
2013-12-19 16:01:00,69.4,22.8,24.81,West,265,9.6,9.6,17,0.00,,---,0.00,VWS V14.01,2013-12-19 22:01:00,
2013-12-19 16:04:00,69.3,22.6,24.78,WNW,293,11.0,14.1,17,0.00,,---,0.00,VWS V14.01,2013-12-19 22:04:00,
2013-12-19 16:05:00,69.3,22.6,24.78,West,270,11.0,12.8,17,0.00,,---,0.00,VWS V14.01,2013-12-19 22:05:00,
2013-12-19 16:06:00,69.3,22.6,24.78,WNW,289,12.8,12.8,17,0.00,,---,0.00,VWS V14.01,2013-12-19 22:06:00,
2013-12-19 16:07:00,69.3,22.6,24.78,SW,229,5.8,12.8,17,0.00,,---,0.00,VWS V14.01,2013-12-19 22:07:00,
2013-12-19 16:12:00,69.1,22.5,24.78,WNW,283,12.8,12.8,17,0.00,,---,0.00,VWS V14.01,2013-12-19 22:12:00,
2013-12-19 16:13:00,69.1,22.5,24.78,WSW,252,8.3,12.8,17,0.00,,---,0.00,VWS V14.01,2013-12-19 22:13:00,
2013-12-19 16:14:00,69.1,22.5,24.78,WNW,296,7.6,8.3,17,0.00,,---,0.00,VWS V14.01,2013-12-19 22:14:00,
2013-12-19 16:15:00,69.1,22.5,24.78,WNW,302,8.7,12.8,17,0.00,,---,0.00,VWS V14.01,2013-12-19 22:15:00,
2013-12-19 16:18:00,69.1,22.5,24.78,WNW,289,8.7,12.3,17,0.00,,---,0.00,VWS V14.01,2013-12-19 22:18:00,
2013-12-19 16:21:00,68.9,22.3,24.78,WSW,251,8.1,8.3,17,0.00,,---,0.00,VWS V14.01,2013-12-19 22:21:00,
2013-12-19 16:22:00,68.7,22.2,24.78,SSW,211,8.3,8.3,17,0.00,,---,0.00,VWS V14.01,2013-12-19 22:22:00,
2013-12-19 16:23:00,68.7,22.2,24.78,WNW,288,6.3,8.7,17,0.00,,---,0.00,VWS V14.01,2013-12-19 22:23:00,
2013-12-19 16:25:00,68.5,22.0,24.78,WSW,242,10.1,10.1,17,0.00,,---,0.00,VWS V14.01,2013-12-19 22:25:00,
2013-12-19 16:27:00,68.5,22.0,24.78,SW,225,5.4,8.3,17,0.00,,---,0.00,VWS V14.01,2013-12-19 22:27:00,
2013-12-19 16:29:00,68.5,22.0,24.78,West,259,5.8,8.1,17,0.00,,---,0.00,VWS V14.01,2013-12-19 22:29:00,
2013-12-19 16:30:00,68.5,22.0,24.78,SW,219,2.7,6.3,17,0.00,,---,0.00,VWS V14.01,2013-12-19 22:30:00,
2013-12-19 16:31:00,68.5,22.0,24.78,WNW,284,6.3,6.3,17,0.00,,---,0.00,VWS V14.01,2013-12-19 22:31:00,
2013-12-19 16:34:00,68.4,21.9,24.78,West,264,6.3,11.4,17,0.00,,---,0.00,VWS V14.01,2013-12-19 22:34:00,
2013-12-19 16:36:00,68.4,21.9,24.78,West,267,9.6,10.1,17,0.00,,---,0.00,VWS V14.01,2013-12-19 22:36:00,
2013-12-19 16:37:00,68.5,22.0,24.78,West,267,5.4,9.6,17,0.00,,---,0.00,VWS V14.01,2013-12-19 22:37:00,
2013-12-19 16:38:00,68.5,22.0,24.78,West,275,7.6,8.1,17,0.00,,---,0.00,VWS V14.01,2013-12-19 22:38:00,
2013-12-19 16:39:00,68.5,22.0,24.78,WNW,298,8.3,11.0,17,0.00,,---,0.00,VWS V14.01,2013-12-19 22:39:00,
2013-12-19 16:40:00,68.5,22.0,24.78,WNW,297,10.1,14.1,17,0.00,,---,0.00,VWS V14.01,2013-12-19 22:40:00,
2013-12-19 16:43:00,68.4,21.9,24.78,West,259,12.8,13.2,17,0.00,,---,0.00,VWS V14.01,2013-12-19 22:43:00,
2013-12-19 16:45:00,68.4,21.9,24.78,WNW,299,8.1,11.4,17,0.00,,---,0.00,VWS V14.01,2013-12-19 22:45:00,
2013-12-19 16:46:00,68.4,21.9,24.78,WSW,254,12.8,12.8,17,0.00,,---,0.00,VWS V14.01,2013-12-19 22:46:00,
2013-12-19 16:49:00,68.2,21.7,24.78,WNW,284,11.4,11.4,17,0.00,,---,0.00,VWS V14.01,2013-12-19 22:49:00,
2013-12-19 16:51:00,68.2,21.7,24.78,WSW,256,8.3,10.5,17,0.00,,---,0.00,VWS V14.01,2013-12-19 22:51:00,
2013-12-19 16:52:00,68.2,21.7,24.78,WNW,299,10.5,11.9,17,0.00,,---,0.00,VWS V14.01,2013-12-19 22:52:00,
2013-12-19 16:53:00,68.0,21.6,24.78,West,270,5.8,14.5,17,0.00,,---,0.00,VWS V14.01,2013-12-19 22:53:00,
2013-12-19 16:55:00,68.0,21.6,24.78,WNW,286,7.6,13.2,17,0.00,,---,0.00,VWS V14.01,2013-12-19 22:55:00,
2013-12-19 16:56:00,68.0,21.6,24.78,West,259,5.4,7.6,17,0.00,,---,0.00,VWS V14.01,2013-12-19 22:56:00,
2013-12-19 16:57:00,68.0,21.6,24.78,WNW,297,8.1,11.0,17,0.00,,---,0.00,VWS V14.01,2013-12-19 22:57:00,
2013-12-19 16:59:00,67.8,21.5,24.78,WSW,247,8.7,13.2,17,0.00,,---,0.00,VWS V14.01,2013-12-19 22:59:00,
2013-12-19 17:01:00,67.8,21.5,24.78,WSW,254,7.6,7.6,17,0.00,,---,0.00,VWS V14.01,2013-12-19 23:01:00,
2013-12-19 17:02:00,67.8,21.5,24.78,WSW,257,5.4,9.2,17,0.00,,---,0.00,VWS V14.01,2013-12-19 23:02:00,
2013-12-19 17:04:00,67.6,21.3,24.78,West,278,8.1,11.0,17,0.00,,---,0.00,VWS V14.01,2013-12-19 23:04:00,
2013-12-19 17:07:00,67.6,21.3,24.78,WNW,287,7.6,8.3,17,0.00,,---,0.00,VWS V14.01,2013-12-19 23:07:00,
2013-12-19 17:08:00,67.5,21.2,24.78,West,271,10.5,10.5,17,0.00,,---,0.00,VWS V14.01,2013-12-19 23:08:00,
2013-12-19 17:09:00,67.5,21.2,24.78,West,259,14.1,14.1,17,0.00,,---,0.00,VWS V14.01,2013-12-19 23:09:00,
2013-12-19 17:10:00,67.5,21.2,24.78,West,263,5.8,14.1,17,0.00,,---,0.00,VWS V14.01,2013-12-19 23:10:00,
2013-12-19 17:11:00,67.3,21.0,24.78,SSW,211,5.4,8.3,17,0.00,,---,0.00,VWS V14.01,2013-12-19 23:11:00,
2013-12-19 17:14:00,67.3,21.0,24.78,SSE,162,5.4,6.3,17,0.00,,---,0.00,VWS V14.01,2013-12-19 23:14:00,
2013-12-19 17:16:00,67.1,20.9,24.78,SW,215,8.1,12.8,17,0.00,,---,0.00,VWS V14.01,2013-12-19 23:16:00,
2013-12-19 17:17:00,67.1,20.9,24.78,NW,306,15.0,15.0,17,0.00,,---,0.00,VWS V14.01,2013-12-19 23:17:00,
2013-12-19 17:19:00,66.9,20.7,24.78,WSW,248,8.1,10.1,17,0.00,,---,0.00,VWS V14.01,2013-12-19 23:19:00,
2013-12-19 17:20:00,66.9,20.7,24.78,West,276,10.5,10.5,17,0.00,,---,0.00,VWS V14.01,2013-12-19 23:20:00,
2013-12-19 17:23:00,66.7,20.6,24.78,West,263,6.3,10.5,17,0.00,,---,0.00,VWS V14.01,2013-12-19 23:23:00,
2013-12-19 17:25:00,66.7,20.6,24.78,West,273,5.4,10.1,17,0.00,,---,0.00,VWS V14.01,2013-12-19 23:25:00,
2013-12-19 17:27:00,66.6,20.4,24.78,West,276,10.5,10.5,17,0.00,,---,0.00,VWS V14.01,2013-12-19 23:27:00,
2013-12-19 17:28:00,66.6,20.4,24.78,WSW,248,5.8,10.5,17,0.00,,---,0.00,VWS V14.01,2013-12-19 23:28:00,
2013-12-19 17:30:00,66.6,20.4,24.78,NW,313,10.1,10.1,17,0.00,,---,0.00,VWS V14.01,2013-12-19 23:30:00,
2013-12-19 17:31:00,66.4,20.3,24.78,West,260,11.0,11.0,17,0.00,,---,0.00,VWS V14.01,2013-12-19 23:31:00,
2013-12-19 17:33:00,66.2,20.1,24.78,SW,234,5.8,10.5,17,0.00,,---,0.00,VWS V14.01,2013-12-19 23:33:00,
2013-12-19 17:35:00,66.2,20.1,24.78,WNW,290,7.6,11.0,17,0.00,,---,0.00,VWS V14.01,2013-12-19 23:35:00,
2013-12-19 17:36:00,66.2,20.1,24.78,WNW,301,8.1,12.8,17,0.00,,---,0.00,VWS V14.01,2013-12-19 23:36:00,
2013-12-19 17:39:00,66.0,21.3,24.78,West,267,8.1,8.7,18,0.00,,---,0.00,VWS V14.01,2013-12-19 23:39:00,
2013-12-19 17:41:00,65.8,21.2,24.78,West,269,4.0,5.8,18,0.00,,---,0.00,VWS V14.01,2013-12-19 23:41:00,
2013-12-19 17:44:00,65.7,21.0,24.78,WSW,256,4.0,4.0,18,0.00,,---,0.00,VWS V14.01,2013-12-19 23:44:00,
2013-12-19 17:45:00,65.7,21.0,24.78,West,278,3.1,4.0,18,0.00,,---,0.00,VWS V14.01,2013-12-19 23:45:00,
2013-12-19 17:47:00,65.3,20.7,24.78,West,271,3.1,4.0,18,0.00,,---,0.00,VWS V14.01,2013-12-19 23:47:00,
2013-12-19 17:48:00,65.1,20.6,24.78,NW,312,3.1,3.1,18,0.00,,---,0.00,VWS V14.01,2013-12-19 23:48:00,
2013-12-19 17:49:00,64.9,20.4,24.78,WSW,248,4.9,4.9,18,0.00,,---,0.00,VWS V14.01,2013-12-19 23:49:00,
2013-12-19 17:50:00,64.9,20.4,24.78,North,9,2.7,4.9,18,0.00,,---,0.00,VWS V14.01,2013-12-19 23:50:00,
2013-12-19 17:55:00,64.2,19.9,24.78,WNW,301,2.7,4.9,18,0.00,,---,0.00,VWS V14.01,2013-12-19 23:55:00,
2013-12-19 17:56:00,64.0,19.7,24.78,NW,306,3.6,4.0,18,0.00,,---,0.00,VWS V14.01,2013-12-19 23:56:00,
2013-12-19 17:58:00,63.9,19.6,24.78,West,278,3.6,6.3,18,0.00,,---,0.00,VWS V14.01,2013-12-19 23:58:00,
2013-12-19 18:00:00,63.9,19.6,24.78,WSW,240,2.7,6.3,18,0.00,,---,0.00,VWS V14.01,2013-12-20 00:00:00,
2013-12-19 18:02:00,63.9,19.6,24.78,SW,236,0.0,2.7,18,0.00,,---,0.00,VWS V14.01,2013-12-20 00:02:00,
2013-12-19 18:04:00,63.7,19.4,24.78,NW,305,3.1,3.1,18,0.00,,---,0.00,VWS V14.01,2013-12-20 00:04:00,
2013-12-19 18:06:00,63.5,19.3,24.78,WSW,256,8.3,8.3,18,0.00,,---,0.00,VWS V14.01,2013-12-20 00:06:00,
2013-12-19 18:07:00,63.5,19.3,24.78,WSW,254,8.7,10.5,18,0.00,,---,0.00,VWS V14.01,2013-12-20 00:07:00,
2013-12-19 18:10:00,63.3,19.1,24.78,West,263,2.7,5.4,18,0.00,,---,0.00,VWS V14.01,2013-12-20 00:10:00,
2013-12-19 18:11:00,63.3,19.1,24.78,WSW,255,3.6,8.7,18,0.00,,---,0.00,VWS V14.01,2013-12-20 00:11:00,
2013-12-19 18:12:00,63.3,19.1,24.78,SSW,197,2.7,4.9,18,0.00,,---,0.00,VWS V14.01,2013-12-20 00:12:00,
2013-12-19 18:13:00,63.1,19.0,24.78,NW,313,2.7,3.6,18,0.00,,---,0.00,VWS V14.01,2013-12-20 00:13:00,
2013-12-19 18:16:00,63.1,19.0,24.78,WSW,244,6.3,6.3,18,0.00,,---,0.00,VWS V14.01,2013-12-20 00:16:00,
2013-12-19 18:18:00,63.1,19.0,24.81,WSW,251,3.6,10.5,18,0.00,,---,0.00,VWS V14.01,2013-12-20 00:18:00,
2013-12-19 18:20:00,63.1,19.0,24.81,WNW,289,6.3,6.3,18,0.00,,---,0.00,VWS V14.01,2013-12-20 00:20:00,
2013-12-19 18:21:00,63.1,19.0,24.81,SW,230,3.6,10.1,18,0.00,,---,0.00,VWS V14.01,2013-12-20 00:21:00,
2013-12-19 18:22:00,63.1,19.0,24.81,West,265,4.0,6.3,18,0.00,,---,0.00,VWS V14.01,2013-12-20 00:22:00,
2013-12-19 18:23:00,63.1,19.0,24.81,SW,233,3.1,5.8,18,0.00,,---,0.00,VWS V14.01,2013-12-20 00:23:00,
2013-12-19 18:27:00,63.1,19.0,24.81,West,276,3.6,7.6,18,0.00,,---,0.00,VWS V14.01,2013-12-20 00:27:00,
2013-12-19 18:28:00,63.1,19.0,24.81,SW,232,3.6,5.8,18,0.00,,---,0.00,VWS V14.01,2013-12-20 00:28:00,
2013-12-19 18:29:00,63.3,19.1,24.81,WSW,250,5.4,5.4,18,0.00,,---,0.00,VWS V14.01,2013-12-20 00:29:00,
2013-12-19 18:31:00,63.1,19.0,24.81,South,191,5.4,5.8,18,0.00,,---,0.00,VWS V14.01,2013-12-20 00:31:00,
2013-12-19 18:32:00,63.1,19.0,24.81,West,272,5.8,8.1,18,0.00,,---,0.00,VWS V14.01,2013-12-20 00:32:00,
2013-12-19 18:34:00,63.3,19.1,24.81,SW,234,5.8,8.7,18,0.00,,---,0.00,VWS V14.01,2013-12-20 00:34:00,
2013-12-19 18:37:00,63.5,19.3,24.81,WSW,247,9.6,9.6,18,0.00,,---,0.00,VWS V14.01,2013-12-20 00:37:00,
2013-12-19 18:39:00,63.5,19.3,24.81,SSE,168,4.9,15.0,18,0.00,,---,0.00,VWS V14.01,2013-12-20 00:39:00,
2013-12-19 18:41:00,63.5,19.3,24.81,West,265,3.6,5.4,18,0.00,,---,0.00,VWS V14.01,2013-12-20 00:41:00,
2013-12-19 18:42:00,63.5,19.3,24.81,West,263,6.3,6.3,18,0.00,,---,0.00,VWS V14.01,2013-12-20 00:42:00,
2013-12-19 18:43:00,63.5,19.3,24.81,SW,218,5.8,10.5,18,0.00,,---,0.00,VWS V14.01,2013-12-20 00:43:00,
2013-12-19 18:46:00,63.7,19.4,24.81,WSW,257,4.0,8.3,18,0.00,,---,0.00,VWS V14.01,2013-12-20 00:46:00,
2013-12-19 18:47:00,63.7,19.4,24.81,WSW,241,5.4,5.8,18,0.00,,---,0.00,VWS V14.01,2013-12-20 00:47:00,
2013-12-19 18:51:00,63.5,19.3,24.81,SW,231,3.1,8.3,18,0.00,,---,0.00,VWS V14.01,2013-12-20 00:51:00,
2013-12-19 18:52:00,63.5,19.3,24.81,WNW,289,4.0,6.7,18,0.00,,---,0.00,VWS V14.01,2013-12-20 00:52:00,
2013-12-19 18:53:00,63.5,19.3,24.81,West,278,5.4,5.4,18,0.00,,---,0.00,VWS V14.01,2013-12-20 00:53:00,
2013-12-19 18:56:00,63.5,19.3,24.81,WSW,257,12.8,12.8,18,0.00,,---,0.00,VWS V14.01,2013-12-20 00:56:00,
2013-12-19 18:58:00,63.3,19.1,24.81,WSW,253,5.8,8.1,18,0.00,,---,0.00,VWS V14.01,2013-12-20 00:58:00,
2013-12-19 18:59:00,63.3,19.1,24.81,West,272,5.8,6.7,18,0.00,,---,0.00,VWS V14.01,2013-12-20 00:59:00,
2013-12-19 19:02:00,63.3,19.1,24.81,WNW,287,2.7,5.4,18,0.00,,---,0.00,VWS V14.01,2013-12-20 01:02:00,
2013-12-19 19:04:00,63.1,19.0,24.81,WNW,285,5.4,6.3,18,0.00,,---,0.00,VWS V14.01,2013-12-20 01:04:00,
2013-12-19 19:05:00,63.1,19.0,24.81,WNW,293,3.1,5.8,18,0.00,,---,0.00,VWS V14.01,2013-12-20 01:05:00,
2013-12-19 19:08:00,63.0,18.8,24.81,NNW,337,3.6,5.4,18,0.00,,---,0.00,VWS V14.01,2013-12-20 01:08:00,
2013-12-19 19:10:00,63.0,18.8,24.81,North,2,4.0,8.1,18,0.00,,---,0.00,VWS V14.01,2013-12-20 01:10:00,
2013-12-19 19:11:00,63.0,18.8,24.81,SW,225,4.0,4.9,18,0.00,,---,0.00,VWS V14.01,2013-12-20 01:11:00,
2013-12-19 19:14:00,63.0,18.8,24.81,WNW,282,3.1,8.7,18,0.00,,---,0.00,VWS V14.01,2013-12-20 01:14:00,
2013-12-19 19:16:00,63.1,19.0,24.81,SW,229,4.0,7.6,18,0.00,,---,0.00,VWS V14.01,2013-12-20 01:16:00,
2013-12-19 19:17:00,63.1,19.0,24.81,West,275,4.0,4.0,18,0.00,,---,0.00,VWS V14.01,2013-12-20 01:17:00,
2013-12-19 19:20:00,63.0,18.8,24.81,WNW,300,4.9,7.6,18,0.00,,---,0.00,VWS V14.01,2013-12-20 01:20:00,
2013-12-19 19:21:00,63.0,18.8,24.81,WSW,238,5.4,6.3,18,0.00,,---,0.00,VWS V14.01,2013-12-20 01:21:00,
2013-12-19 19:25:00,63.0,18.8,24.81,WSW,239,3.1,5.4,18,0.00,,---,0.00,VWS V14.01,2013-12-20 01:25:00,
2013-12-19 19:26:00,63.0,18.8,24.81,WSW,247,7.2,8.7,18,0.00,,---,0.00,VWS V14.01,2013-12-20 01:26:00,
2013-12-19 19:28:00,63.0,18.8,24.81,WNW,293,3.1,5.4,18,0.00,,---,0.00,VWS V14.01,2013-12-20 01:28:00,
2013-12-19 19:29:00,63.0,18.8,24.81,West,267,4.9,5.4,18,0.00,,---,0.00,VWS V14.01,2013-12-20 01:29:00,
2013-12-19 19:33:00,63.0,18.8,24.81,NW,306,5.8,5.8,18,0.00,,---,0.00,VWS V14.01,2013-12-20 01:33:00,
2013-12-19 19:34:00,62.8,18.7,24.81,WSW,246,7.2,7.6,18,0.00,,---,0.00,VWS V14.01,2013-12-20 01:34:00,
2013-12-19 19:35:00,62.8,18.7,24.81,WNW,286,4.0,10.5,18,0.00,,---,0.00,VWS V14.01,2013-12-20 01:35:00,
2013-12-19 19:36:00,62.8,18.7,24.81,SSW,209,7.6,7.6,18,0.00,,---,0.00,VWS V14.01,2013-12-20 01:36:00,
2013-12-19 19:37:00,62.8,18.7,24.81,West,264,5.4,7.6,18,0.00,,---,0.00,VWS V14.01,2013-12-20 01:37:00,
2013-12-19 19:39:00,62.8,18.7,24.81,East,89,4.0,5.4,18,0.00,,---,0.00,VWS V14.01,2013-12-20 01:39:00,
2013-12-19 19:41:00,62.8,18.7,24.81,West,278,4.0,7.2,18,0.00,,---,0.00,VWS V14.01,2013-12-20 01:41:00,
2013-12-19 19:44:00,62.6,18.5,24.81,South,178,5.8,7.2,18,0.00,,---,0.00,VWS V14.01,2013-12-20 01:44:00,
2013-12-19 19:46:00,62.6,18.5,24.81,West,273,3.6,5.4,18,0.00,,---,0.00,VWS V14.01,2013-12-20 01:46:00,
2013-12-19 19:49:00,62.4,19.6,24.81,West,267,7.6,7.6,19,0.00,,---,0.00,VWS V14.01,2013-12-20 01:49:00,
2013-12-19 19:50:00,62.4,19.6,24.81,NW,309,3.6,7.6,19,0.00,,---,0.00,VWS V14.01,2013-12-20 01:50:00,
2013-12-19 19:52:00,62.4,19.6,24.81,NW,316,3.6,5.4,19,0.00,,---,0.00,VWS V14.01,2013-12-20 01:52:00,
2013-12-19 19:53:00,62.4,19.6,24.81,NNW,333,4.9,5.8,19,0.00,,---,0.00,VWS V14.01,2013-12-20 01:53:00,
2013-12-19 19:54:00,62.4,19.6,24.81,NW,315,3.6,5.4,19,0.00,,---,0.00,VWS V14.01,2013-12-20 01:54:00,
2013-12-19 19:55:00,62.2,19.5,24.81,WSW,251,3.1,4.9,19,0.00,,---,0.00,VWS V14.01,2013-12-20 01:55:00,
2013-12-19 19:57:00,62.2,19.5,24.81,West,264,4.0,6.3,19,0.00,,---,0.00,VWS V14.01,2013-12-20 01:57:00,
2013-12-19 19:58:00,62.1,19.3,24.81,WSW,256,6.3,8.3,19,0.00,,---,0.00,VWS V14.01,2013-12-20 01:58:00,
2013-12-19 19:59:00,62.1,19.3,24.81,WNW,295,5.4,6.3,19,0.00,,---,0.00,VWS V14.01,2013-12-20 01:59:00,
2013-12-19 20:01:00,61.9,19.2,24.81,SW,225,3.6,5.8,19,0.00,,---,0.00,VWS V14.01,2013-12-20 02:01:00,
2013-12-19 20:03:00,61.7,19.0,24.81,WNW,286,3.1,4.9,19,0.00,,---,0.00,VWS V14.01,2013-12-20 02:03:00,
2013-12-19 20:04:00,61.7,19.0,24.81,West,278,5.8,5.8,19,0.00,,---,0.00,VWS V14.01,2013-12-20 02:04:00,
2013-12-19 20:06:00,61.5,18.9,24.81,SW,231,5.8,7.6,19,0.00,,---,0.00,VWS V14.01,2013-12-20 02:06:00,
2013-12-19 20:08:00,61.5,18.9,24.81,WSW,249,4.0,6.3,19,0.00,,---,0.00,VWS V14.01,2013-12-20 02:08:00,
2013-12-19 20:09:00,61.5,18.9,24.81,West,281,8.3,8.3,19,0.00,,---,0.00,VWS V14.01,2013-12-20 02:09:00,
2013-12-19 20:10:00,61.5,18.9,24.81,WNW,290,5.4,8.3,19,0.00,,---,0.00,VWS V14.01,2013-12-20 02:10:00,
2013-12-19 20:11:00,61.5,18.9,24.81,WSW,243,6.3,7.6,19,0.00,,---,0.00,VWS V14.01,2013-12-20 02:11:00,
2013-12-19 20:14:00,61.5,18.9,24.81,WNW,286,5.4,7.6,19,0.00,,---,0.00,VWS V14.01,2013-12-20 02:14:00,
2013-12-19 20:15:00,61.5,18.9,24.81,West,277,5.4,6.7,19,0.00,,---,0.00,VWS V14.01,2013-12-20 02:15:00,
2013-12-19 20:18:00,61.5,18.9,24.81,WSW,256,8.3,8.3,19,0.00,,---,0.00,VWS V14.01,2013-12-20 02:18:00,
2013-12-19 20:19:00,61.5,18.9,24.81,West,267,8.3,8.3,19,0.00,,---,0.00,VWS V14.01,2013-12-20 02:19:00,
2013-12-19 20:24:00,61.5,18.9,24.81,WNW,291,8.1,8.1,19,0.00,,---,0.00,VWS V14.01,2013-12-20 02:24:00,
2013-12-19 20:26:00,61.5,18.9,24.81,WNW,302,3.6,5.8,19,0.00,,---,0.00,VWS V14.01,2013-12-20 02:26:00,
2013-12-19 20:27:00,61.3,18.8,24.81,WNW,297,4.5,6.3,19,0.00,,---,0.00,VWS V14.01,2013-12-20 02:27:00,
2013-12-19 20:29:00,61.0,18.5,24.81,WNW,300,4.9,5.8,19,0.00,,---,0.00,VWS V14.01,2013-12-20 02:29:00,
2013-12-19 20:31:00,60.6,18.2,24.81,NW,305,5.4,7.6,19,0.00,,---,0.00,VWS V14.01,2013-12-20 02:31:00,
2013-12-19 20:32:00,60.4,18.0,24.78,WNW,295,6.3,8.3,19,0.00,,---,0.00,VWS V14.01,2013-12-20 02:32:00,
2013-12-19 20:34:00,60.4,18.0,24.78,WNW,303,8.7,11.4,19,0.00,,---,0.00,VWS V14.01,2013-12-20 02:34:00,
2013-12-19 20:36:00,60.4,18.0,24.78,NW,313,8.3,8.7,19,0.00,,---,0.00,VWS V14.01,2013-12-20 02:36:00,
2013-12-19 20:37:00,60.4,18.0,24.78,WNW,295,8.1,11.0,19,0.00,,---,0.00,VWS V14.01,2013-12-20 02:37:00,
2013-12-19 20:38:00,60.6,18.2,24.78,West,281,10.5,11.9,19,0.00,,---,0.00,VWS V14.01,2013-12-20 02:38:00,
2013-12-19 20:41:00,60.8,18.3,24.78,WNW,293,5.8,10.1,19,0.00,,---,0.00,VWS V14.01,2013-12-20 02:41:00,
2013-12-19 20:42:00,61.0,18.5,24.78,WNW,285,12.3,12.3,19,0.00,,---,0.00,VWS V14.01,2013-12-20 02:42:00,
2013-12-19 20:44:00,61.2,18.6,24.78,West,262,6.3,10.5,19,0.00,,---,0.00,VWS V14.01,2013-12-20 02:44:00,
2013-12-19 20:45:00,61.3,18.8,24.78,WNW,295,10.5,10.5,19,0.00,,---,0.00,VWS V14.01,2013-12-20 02:45:00,
2013-12-19 20:46:00,61.5,18.9,24.78,WNW,299,6.3,10.5,19,0.00,,---,0.00,VWS V14.01,2013-12-20 02:46:00,
2013-12-19 20:47:00,61.5,18.9,24.81,WNW,289,8.1,13.2,19,0.00,,---,0.00,VWS V14.01,2013-12-20 02:47:00,
2013-12-19 20:48:00,61.7,19.0,24.81,NNW,330,5.4,8.3,19,0.00,,---,0.00,VWS V14.01,2013-12-20 02:48:00,
2013-12-19 20:49:00,61.7,19.0,24.81,NNW,334,4.0,5.4,19,0.00,,---,0.00,VWS V14.01,2013-12-20 02:49:00,
2013-12-19 20:51:00,61.7,19.0,24.81,NW,321,4.0,4.9,19,0.00,,---,0.00,VWS V14.01,2013-12-20 02:51:00,
2013-12-19 20:52:00,61.3,18.8,24.81,NNW,332,3.1,4.0,19,0.00,,---,0.00,VWS V14.01,2013-12-20 02:52:00,
2013-12-19 20:54:00,60.8,18.3,24.81,NNW,335,3.1,5.8,19,0.00,,---,0.00,VWS V14.01,2013-12-20 02:54:00,
2013-12-19 20:57:00,60.3,17.9,24.81,NW,326,5.8,5.8,19,0.00,,---,0.00,VWS V14.01,2013-12-20 02:57:00,
2013-12-19 20:58:00,60.1,17.7,24.81,NW,316,7.6,7.6,19,0.00,,---,0.00,VWS V14.01,2013-12-20 02:58:00,
2013-12-19 20:59:00,59.9,17.6,24.81,NW,304,5.4,7.6,19,0.00,,---,0.00,VWS V14.01,2013-12-20 02:59:00,
2013-12-19 21:00:00,59.7,17.4,24.81,NW,304,5.4,6.3,19,0.00,,---,0.00,VWS V14.01,2013-12-20 03:00:00,
2013-12-19 21:05:00,59.4,17.1,24.81,NW,316,5.4,5.4,19,0.00,,---,0.00,VWS V14.01,2013-12-20 03:05:00,
2013-12-19 21:06:00,59.4,17.1,24.81,WNW,302,5.4,7.6,19,0.00,,---,0.00,VWS V14.01,2013-12-20 03:06:00,
2013-12-19 21:09:00,59.4,17.1,24.81,NW,323,5.4,8.1,19,0.00,,---,0.00,VWS V14.01,2013-12-20 03:09:00,
2013-12-19 21:11:00,59.4,17.1,24.81,WNW,292,5.4,5.8,19,0.00,,---,0.00,VWS V14.01,2013-12-20 03:11:00,
2013-12-19 21:12:00,59.5,17.3,24.81,NW,319,4.0,6.3,19,0.00,,---,0.00,VWS V14.01,2013-12-20 03:12:00,
2013-12-19 21:16:00,59.5,17.3,24.81,WNW,283,4.9,4.9,19,0.00,,---,0.00,VWS V14.01,2013-12-20 03:16:00,
2013-12-19 21:17:00,59.5,17.3,24.81,NW,318,8.3,8.3,19,0.00,,---,0.00,VWS V14.01,2013-12-20 03:17:00,
2013-12-19 21:18:00,59.4,17.1,24.81,NNW,330,8.1,8.3,19,0.00,,---,0.00,VWS V14.01,2013-12-20 03:18:00,
2013-12-19 21:19:00,59.4,17.1,24.81,NW,309,6.3,8.7,19,0.00,,---,0.00,VWS V14.01,2013-12-20 03:19:00,
2013-12-19 21:22:00,59.5,17.3,24.81,NW,310,6.3,6.3,19,0.00,,---,0.00,VWS V14.01,2013-12-20 03:22:00,
2013-12-19 21:24:00,59.5,17.3,24.81,NNW,345,0.0,3.6,19,0.00,,---,0.00,VWS V14.01,2013-12-20 03:24:00,
2013-12-19 21:26:00,59.5,17.3,24.81,NNW,345,0.0,0.0,19,0.00,,---,0.00,VWS V14.01,2013-12-20 03:26:00,
2013-12-19 21:28:00,59.2,17.0,24.81,NNW,336,2.7,5.4,19,0.00,,---,0.00,VWS V14.01,2013-12-20 03:28:00,
2013-12-19 21:31:00,59.0,16.8,24.81,NNW,335,3.1,3.6,19,0.00,,---,0.00,VWS V14.01,2013-12-20 03:31:00,
2013-12-19 21:33:00,58.8,16.7,24.83,NW,317,3.1,3.6,19,0.00,,---,0.00,VWS V14.01,2013-12-20 03:33:00,
2013-12-19 21:37:00,58.5,13.8,24.83,SSE,155,2.7,4.0,17,0.00,,---,0.00,VWS V14.01,2013-12-20 03:37:00,
2013-12-19 21:39:00,58.1,16.1,24.83,SSE,153,3.1,4.9,19,0.00,,---,0.00,VWS V14.01,2013-12-20 03:39:00,
2013-12-19 21:40:00,58.1,16.1,24.83,SSE,149,2.7,3.1,19,0.00,,---,0.00,VWS V14.01,2013-12-20 03:40:00,
2013-12-19 21:41:00,57.7,13.2,24.83,South,174,2.7,3.1,17,0.00,,---,0.00,VWS V14.01,2013-12-20 03:41:00,
2013-12-19 21:44:00,56.8,12.5,24.83,SW,236,0.0,2.2,17,0.00,,---,0.00,VWS V14.01,2013-12-20 03:44:00,
2013-12-19 21:45:00,56.7,12.4,24.83,West,269,0.0,3.1,17,0.00,,---,0.00,VWS V14.01,2013-12-20 03:45:00,
2013-12-19 21:46:00,56.5,12.2,24.83,West,262,0.0,0.0,17,0.00,,---,0.00,VWS V14.01,2013-12-20 03:46:00,
2013-12-19 21:47:00,56.3,12.1,24.83,West,260,0.0,0.0,17,0.00,,---,0.00,VWS V14.01,2013-12-20 03:47:00,
2013-12-19 21:49:00,55.8,11.6,24.83,WSW,241,0.0,0.0,17,0.00,,---,0.00,VWS V14.01,2013-12-20 03:49:00,
2013-12-19 21:50:00,55.8,11.6,24.83,WSW,241,0.0,0.0,17,0.00,,---,0.00,VWS V14.01,2013-12-20 03:50:00,
2013-12-19 21:53:00,55.0,12.3,24.83,WSW,241,0.0,0.0,18,0.00,,---,0.00,VWS V14.01,2013-12-20 03:53:00,
2013-12-19 21:55:00,54.9,12.2,24.83,WSW,241,0.0,0.0,18,0.00,,---,0.00,VWS V14.01,2013-12-20 03:55:00,
2013-12-19 21:56:00,54.7,12.0,24.83,WSW,241,0.0,0.0,18,0.00,,---,0.00,VWS V14.01,2013-12-20 03:56:00,
2013-12-19 21:59:00,54.5,11.9,24.83,WSW,241,0.0,2.2,18,0.00,,---,0.00,VWS V14.01,2013-12-20 03:59:00,
2013-12-19 22:01:00,54.3,11.7,24.83,WSW,240,0.0,0.0,18,0.00,,---,0.00,VWS V14.01,2013-12-20 04:01:00,
2013-12-19 22:02:00,54.3,11.7,24.83,SW,215,2.7,3.6,18,0.00,,---,0.00,VWS V14.01,2013-12-20 04:02:00,
2013-12-19 22:03:00,54.3,11.7,24.83,SW,214,0.0,3.6,18,0.00,,---,0.00,VWS V14.01,2013-12-20 04:03:00,
2013-12-19 22:05:00,54.1,11.6,24.83,SW,214,0.0,0.0,18,0.00,,---,0.00,VWS V14.01,2013-12-20 04:05:00,
2013-12-19 22:06:00,54.1,11.6,24.83,SW,214,0.0,0.0,18,0.00,,---,0.00,VWS V14.01,2013-12-20 04:06:00,
2013-12-19 22:07:00,54.1,11.6,24.83,SW,214,0.0,0.0,18,0.00,,---,0.00,VWS V14.01,2013-12-20 04:07:00,
2013-12-19 22:08:00,54.0,11.4,24.83,SW,214,0.0,0.0,18,0.00,,---,0.00,VWS V14.01,2013-12-20 04:08:00,
2013-12-19 22:10:00,53.8,11.3,24.83,SW,214,0.0,0.0,18,0.00,,---,0.00,VWS V14.01,2013-12-20 04:10:00,
2013-12-19 22:11:00,53.8,11.3,24.83,SSW,203,4.0,4.0,18,0.00,,---,0.00,VWS V14.01,2013-12-20 04:11:00,
2013-12-19 22:14:00,53.8,11.3,24.83,SSE,151,3.1,4.0,18,0.00,,---,0.00,VWS V14.01,2013-12-20 04:14:00,
2013-12-19 22:15:00,54.0,11.4,24.83,SSE,148,3.1,4.0,18,0.00,,---,0.00,VWS V14.01,2013-12-20 04:15:00,
2013-12-19 22:16:00,54.0,11.4,24.83,SSE,149,2.7,3.6,18,0.00,,---,0.00,VWS V14.01,2013-12-20 04:16:00,
2013-12-19 22:19:00,54.0,11.4,24.83,SSE,151,0.0,0.0,18,0.00,,---,0.00,VWS V14.01,2013-12-20 04:19:00,
2013-12-19 22:20:00,53.8,11.3,24.83,SW,236,2.2,5.4,18,0.00,,---,0.00,VWS V14.01,2013-12-20 04:20:00,
2013-12-19 22:21:00,53.8,11.3,24.83,South,191,2.7,3.1,18,0.00,,---,0.00,VWS V14.01,2013-12-20 04:21:00,
2013-12-19 22:22:00,53.8,11.3,24.83,SSW,208,0.0,2.7,18,0.00,,---,0.00,VWS V14.01,2013-12-20 04:22:00,
2013-12-19 22:25:00,53.6,11.1,24.83,WSW,251,0.0,0.0,18,0.00,,---,0.00,VWS V14.01,2013-12-20 04:25:00,
2013-12-19 22:27:00,53.6,11.1,24.83,WNW,291,3.1,3.1,18,0.00,,---,0.00,VWS V14.01,2013-12-20 04:27:00,
2013-12-19 22:28:00,53.6,11.1,24.83,West,262,3.1,4.0,18,0.00,,---,0.00,VWS V14.01,2013-12-20 04:28:00,
2013-12-19 22:30:00,53.6,11.1,24.83,West,269,6.3,6.3,18,0.00,,---,0.00,VWS V14.01,2013-12-20 04:30:00,
2013-12-19 22:33:00,54.1,11.6,24.83,SW,234,3.1,5.8,18,0.00,,---,0.00,VWS V14.01,2013-12-20 04:33:00,
2013-12-19 22:34:00,54.5,11.9,24.83,West,277,3.6,6.3,18,0.00,,---,0.00,VWS V14.01,2013-12-20 04:34:00,
2013-12-19 22:36:00,54.9,12.2,24.83,WNW,288,5.4,5.4,18,0.00,,---,0.00,VWS V14.01,2013-12-20 04:36:00,
2013-12-19 22:38:00,55.2,12.5,24.83,WNW,284,4.0,5.8,18,0.00,,---,0.00,VWS V14.01,2013-12-20 04:38:00,
2013-12-19 22:40:00,55.4,11.3,24.83,West,271,5.8,7.2,17,0.00,,---,0.00,VWS V14.01,2013-12-20 04:40:00,
2013-12-19 22:41:00,55.6,11.5,24.83,West,265,4.9,5.8,17,0.00,,---,0.00,VWS V14.01,2013-12-20 04:41:00,
2013-12-19 22:42:00,55.6,11.5,24.83,West,271,2.7,4.9,17,0.00,,---,0.00,VWS V14.01,2013-12-20 04:42:00,
2013-12-19 22:44:00,55.6,11.5,24.83,West,271,0.0,3.1,17,0.00,,---,0.00,VWS V14.01,2013-12-20 04:44:00,
2013-12-19 22:47:00,55.2,12.5,24.83,West,271,0.0,0.0,18,0.00,,---,0.00,VWS V14.01,2013-12-20 04:47:00,
2013-12-19 22:48:00,55.2,12.5,24.83,West,271,0.0,0.0,18,0.00,,---,0.00,VWS V14.01,2013-12-20 04:48:00,
2013-12-19 22:49:00,54.9,12.2,24.83,West,271,0.0,0.0,18,0.00,,---,0.00,VWS V14.01,2013-12-20 04:49:00,
2013-12-19 22:50:00,54.7,12.0,24.83,West,271,0.0,0.0,18,0.00,,---,0.00,VWS V14.01,2013-12-20 04:50:00,
2013-12-19 22:51:00,54.3,11.7,24.83,West,271,0.0,0.0,18,0.00,,---,0.00,VWS V14.01,2013-12-20 04:51:00,
2013-12-19 22:52:00,54.3,11.7,24.83,West,271,0.0,0.0,18,0.00,,---,0.00,VWS V14.01,2013-12-20 04:52:00,
2013-12-19 22:55:00,53.6,11.1,24.83,West,271,0.0,0.0,18,0.00,,---,0.00,VWS V14.01,2013-12-20 04:55:00,
2013-12-19 22:57:00,53.2,10.9,24.83,West,271,0.0,0.0,18,0.00,,---,0.00,VWS V14.01,2013-12-20 04:57:00,
2013-12-19 22:58:00,53.1,10.7,24.83,WNW,300,0.0,0.0,18,0.00,,---,0.00,VWS V14.01,2013-12-20 04:58:00,
2013-12-19 23:01:00,52.7,10.4,24.83,WNW,299,0.0,0.0,18,0.00,,---,0.00,VWS V14.01,2013-12-20 05:01:00,
2013-12-19 23:02:00,52.5,10.2,24.83,WNW,299,0.0,0.0,18,0.00,,---,0.00,VWS V14.01,2013-12-20 05:02:00,
2013-12-19 23:03:00,52.2,10.0,24.83,WNW,299,0.0,0.0,18,0.00,,---,0.00,VWS V14.01,2013-12-20 05:03:00,
2013-12-19 23:05:00,51.8,9.7,24.83,WNW,300,0.0,0.0,18,0.00,,---,0.00,VWS V14.01,2013-12-20 05:05:00,
2013-12-19 23:08:00,51.3,10.4,24.83,WNW,299,0.0,0.0,19,0.00,,---,0.00,VWS V14.01,2013-12-20 05:08:00,
2013-12-19 23:10:00,50.9,10.1,24.83,WNW,299,0.0,0.0,19,0.00,,---,0.00,VWS V14.01,2013-12-20 05:10:00,
2013-12-19 23:11:00,50.7,10.0,24.83,WNW,299,0.0,0.0,19,0.00,,---,0.00,VWS V14.01,2013-12-20 05:11:00,
2013-12-19 23:12:00,50.4,9.7,24.83,WNW,300,0.0,0.0,19,0.00,,---,0.00,VWS V14.01,2013-12-20 05:12:00,
2013-12-19 23:13:00,50.4,9.7,24.83,WNW,299,3.1,3.1,19,0.00,,---,0.00,VWS V14.01,2013-12-20 05:13:00,
2013-12-19 23:14:00,50.2,9.5,24.83,WNW,300,0.0,3.1,19,0.00,,---,0.00,VWS V14.01,2013-12-20 05:14:00,
2013-12-19 23:15:00,50.0,9.4,24.83,NW,304,2.7,2.7,19,0.00,,---,0.00,VWS V14.01,2013-12-20 05:15:00,
2013-12-19 23:19:00,49.5,8.9,24.83,NW,305,0.0,0.0,19,0.00,,---,0.00,VWS V14.01,2013-12-20 05:19:00,
2013-12-19 23:20:00,49.5,8.9,24.83,NW,305,0.0,0.0,19,0.00,,---,0.00,VWS V14.01,2013-12-20 05:20:00,
2013-12-19 23:21:00,49.5,8.9,24.83,NW,305,0.0,0.0,19,0.00,,---,0.00,VWS V14.01,2013-12-20 05:21:00,
2013-12-19 23:23:00,49.3,8.8,24.83,NW,305,0.0,0.0,19,0.00,,---,0.00,VWS V14.01,2013-12-20 05:23:00,
2013-12-19 23:24:00,49.1,8.6,24.83,NW,305,0.0,0.0,19,0.00,,---,0.00,VWS V14.01,2013-12-20 05:24:00,
2013-12-19 23:26:00,48.9,8.5,24.83,NW,305,0.0,0.0,19,0.00,,---,0.00,VWS V14.01,2013-12-20 05:26:00,
2013-12-19 23:28:00,48.7,8.3,24.83,NW,305,0.0,0.0,19,0.00,,---,0.00,VWS V14.01,2013-12-20 05:28:00,
2013-12-19 23:29:00,48.7,8.3,24.83,NW,305,0.0,0.0,19,0.00,,---,0.00,VWS V14.01,2013-12-20 05:29:00,
2013-12-19 23:33:00,48.7,8.3,24.83,NW,305,0.0,0.0,19,0.00,,---,0.00,VWS V14.01,2013-12-20 05:33:00,
2013-12-19 23:34:00,48.9,8.5,24.83,NW,305,0.0,0.0,19,0.00,,---,0.00,VWS V14.01,2013-12-20 05:34:00,
2013-12-19 23:35:00,49.1,8.6,24.83,NW,305,0.0,0.0,19,0.00,,---,0.00,VWS V14.01,2013-12-20 05:35:00,
2013-12-19 23:38:00,49.5,8.9,24.83,NW,305,0.0,0.0,19,0.00,,---,0.00,VWS V14.01,2013-12-20 05:38:00,
2013-12-19 23:40:00,49.6,9.1,24.83,NW,305,0.0,0.0,19,0.00,,---,0.00,VWS V14.01,2013-12-20 05:40:00,
2013-12-19 23:41:00,49.6,9.1,24.83,NW,305,0.0,0.0,19,0.00,,---,0.00,VWS V14.01,2013-12-20 05:41:00,
2013-12-19 23:42:00,49.6,9.1,24.83,NW,305,0.0,0.0,19,0.00,,---,0.00,VWS V14.01,2013-12-20 05:42:00,
2013-12-19 23:47:00,49.6,9.1,24.83,NW,305,0.0,0.0,19,0.00,,---,0.00,VWS V14.01,2013-12-20 05:47:00,
2013-12-19 23:48:00,49.8,9.2,24.83,NW,305,0.0,0.0,19,0.00,,---,0.00,VWS V14.01,2013-12-20 05:48:00,
2013-12-19 23:50:00,50.0,9.4,24.83,NW,305,0.0,0.0,19,0.00,,---,0.00,VWS V14.01,2013-12-20 05:50:00,
2013-12-19 23:52:00,50.2,9.5,24.83,NW,305,0.0,0.0,19,0.00,,---,0.00,VWS V14.01,2013-12-20 05:52:00,
2013-12-19 23:54:00,50.4,9.7,24.83,NW,305,0.0,0.0,19,0.00,,---,0.00,VWS V14.01,2013-12-20 05:54:00,
2013-12-19 23:55:00,50.4,9.7,24.83,NW,305,0.0,0.0,19,0.00,,---,0.00,VWS V14.01,2013-12-20 05:55:00,
2013-12-19 23:56:00,50.5,9.8,24.83,NW,305,0.0,0.0,19,0.00,,---,0.00,VWS V14.01,2013-12-20 05:56:00,
2013-12-19 23:57:00,50.5,9.8,24.83,NW,305,0.0,0.0,19,0.00,,---,0.00,VWS V14.01,2013-12-20 05:57:00,
2013-12-19 23:59:00,50.9,10.1,24.83,NW,305,0.0,0.0,19,0.00,,---,0.00,VWS V14.01,2013-12-20 05:59:00,